<?xml version="1.0" encoding="UTF-8" standalone="no" ?>
<gpx xmlns="http://www.topografix.com/GPX/1/1" xmlns:xsi="http://www.w3.org/2001/XMLSchema-instance" xsi:schemaLocation="http://www.topografix.com/GPX/1/1 http://www.topografix.com/GPX/1/1/gpx.xsd" version="1.1" creator="VisuGPX - https://www.visugpx.com">
  <metadata>
    <name>St Antoine de Ficalba 8.2 km</name>
  </metadata>
  <trk>
    <name><![CDATA[Randonnée du 17/04/2025 à 14:17]]></name>
    <extensions>
      <line xmlns="http://www.topografix.com/GPX/gpx_style/0/2">
        <color>0000FF</color>
        <width>4</width>
      </line>
    </extensions>
    <trkseg>
      <trkpt lat="44.33238" lon="0.71742">
        <ele>207.1</ele>
        <time>2025-04-17T12:17:22.000Z</time>
      </trkpt>
      <trkpt lat="44.33236" lon="0.71744">
        <ele>207.1</ele>
        <time>2025-04-17T12:17:24.000Z</time>
      </trkpt>
      <trkpt lat="44.33229" lon="0.71737">
        <ele>207.3</ele>
        <time>2025-04-17T12:17:26.000Z</time>
      </trkpt>
      <trkpt lat="44.33236" lon="0.71738">
        <ele>207.2</ele>
        <time>2025-04-17T12:17:36.000Z</time>
      </trkpt>
      <trkpt lat="44.33245" lon="0.71736">
        <ele>207.1</ele>
        <time>2025-04-17T12:17:50.000Z</time>
      </trkpt>
      <trkpt lat="44.33253" lon="0.71731">
        <ele>206.9</ele>
        <time>2025-04-17T12:18:00.000Z</time>
      </trkpt>
      <trkpt lat="44.33254" lon="0.7172">
        <ele>206.9</ele>
        <time>2025-04-17T12:18:30.000Z</time>
      </trkpt>
      <trkpt lat="44.33254" lon="0.71706">
        <ele>207.4</ele>
        <time>2025-04-17T12:18:56.000Z</time>
      </trkpt>
      <trkpt lat="44.33254" lon="0.71693">
        <ele>207.9</ele>
        <time>2025-04-17T12:19:02.000Z</time>
      </trkpt>
      <trkpt lat="44.3325" lon="0.71682">
        <ele>208</ele>
        <time>2025-04-17T12:19:10.000Z</time>
      </trkpt>
      <trkpt lat="44.33242" lon="0.71677">
        <ele>208.3</ele>
        <time>2025-04-17T12:19:18.000Z</time>
      </trkpt>
      <trkpt lat="44.33233" lon="0.71676">
        <ele>208.6</ele>
        <time>2025-04-17T12:19:32.000Z</time>
      </trkpt>
      <trkpt lat="44.33222" lon="0.71675">
        <ele>209</ele>
        <time>2025-04-17T12:19:40.000Z</time>
      </trkpt>
      <trkpt lat="44.33212" lon="0.71677">
        <ele>209</ele>
        <time>2025-04-17T12:19:50.000Z</time>
      </trkpt>
      <trkpt lat="44.33204" lon="0.71679">
        <ele>209</ele>
        <time>2025-04-17T12:19:58.000Z</time>
      </trkpt>
      <trkpt lat="44.33195" lon="0.71679">
        <ele>209</ele>
        <time>2025-04-17T12:20:06.000Z</time>
      </trkpt>
      <trkpt lat="44.33185" lon="0.7168">
        <ele>208.8</ele>
        <time>2025-04-17T12:20:16.000Z</time>
      </trkpt>
      <trkpt lat="44.33175" lon="0.71678">
        <ele>208.7</ele>
        <time>2025-04-17T12:20:24.000Z</time>
      </trkpt>
      <trkpt lat="44.33166" lon="0.71678">
        <ele>208.6</ele>
        <time>2025-04-17T12:20:32.000Z</time>
      </trkpt>
      <trkpt lat="44.33158" lon="0.7168">
        <ele>208.2</ele>
        <time>2025-04-17T12:20:40.000Z</time>
      </trkpt>
      <trkpt lat="44.33148" lon="0.71681">
        <ele>207.8</ele>
        <time>2025-04-17T12:20:48.000Z</time>
      </trkpt>
      <trkpt lat="44.33138" lon="0.7168">
        <ele>207.6</ele>
        <time>2025-04-17T12:20:56.000Z</time>
      </trkpt>
      <trkpt lat="44.33129" lon="0.7168">
        <ele>207.4</ele>
        <time>2025-04-17T12:21:04.000Z</time>
      </trkpt>
      <trkpt lat="44.3312" lon="0.71681">
        <ele>207.1</ele>
        <time>2025-04-17T12:21:12.000Z</time>
      </trkpt>
      <trkpt lat="44.33111" lon="0.71685">
        <ele>206.7</ele>
        <time>2025-04-17T12:21:20.000Z</time>
      </trkpt>
      <trkpt lat="44.33101" lon="0.71687">
        <ele>206.5</ele>
        <time>2025-04-17T12:21:28.000Z</time>
      </trkpt>
      <trkpt lat="44.33091" lon="0.71685">
        <ele>206.4</ele>
        <time>2025-04-17T12:21:36.000Z</time>
      </trkpt>
      <trkpt lat="44.33082" lon="0.71685">
        <ele>206.3</ele>
        <time>2025-04-17T12:21:44.000Z</time>
      </trkpt>
      <trkpt lat="44.33072" lon="0.71686">
        <ele>205.9</ele>
        <time>2025-04-17T12:21:52.000Z</time>
      </trkpt>
      <trkpt lat="44.33062" lon="0.71686">
        <ele>205.5</ele>
        <time>2025-04-17T12:22:00.000Z</time>
      </trkpt>
      <trkpt lat="44.33052" lon="0.71686">
        <ele>205.2</ele>
        <time>2025-04-17T12:22:09.000Z</time>
      </trkpt>
      <trkpt lat="44.33044" lon="0.71693">
        <ele>204.7</ele>
        <time>2025-04-17T12:22:16.000Z</time>
      </trkpt>
      <trkpt lat="44.33044" lon="0.71705">
        <ele>203.6</ele>
        <time>2025-04-17T12:22:26.000Z</time>
      </trkpt>
      <trkpt lat="44.3305" lon="0.71716">
        <ele>202.6</ele>
        <time>2025-04-17T12:22:36.000Z</time>
      </trkpt>
      <trkpt lat="44.33057" lon="0.71727">
        <ele>201.8</ele>
        <time>2025-04-17T12:22:48.000Z</time>
      </trkpt>
      <trkpt lat="44.33063" lon="0.71738">
        <ele>201.3</ele>
        <time>2025-04-17T12:22:57.000Z</time>
      </trkpt>
      <trkpt lat="44.3307" lon="0.71747">
        <ele>200.8</ele>
        <time>2025-04-17T12:23:05.000Z</time>
      </trkpt>
      <trkpt lat="44.33078" lon="0.71756">
        <ele>200.2</ele>
        <time>2025-04-17T12:23:15.000Z</time>
      </trkpt>
      <trkpt lat="44.33086" lon="0.71765">
        <ele>199.5</ele>
        <time>2025-04-17T12:23:23.000Z</time>
      </trkpt>
      <trkpt lat="44.33091" lon="0.71776">
        <ele>198.7</ele>
        <time>2025-04-17T12:23:33.000Z</time>
      </trkpt>
      <trkpt lat="44.33099" lon="0.71783">
        <ele>198.8</ele>
        <time>2025-04-17T12:24:03.000Z</time>
      </trkpt>
      <trkpt lat="44.33106" lon="0.71793">
        <ele>198.8</ele>
        <time>2025-04-17T12:24:11.000Z</time>
      </trkpt>
      <trkpt lat="44.33112" lon="0.71806">
        <ele>199</ele>
        <time>2025-04-17T12:24:21.000Z</time>
      </trkpt>
      <trkpt lat="44.33119" lon="0.71818">
        <ele>197.8</ele>
        <time>2025-04-17T12:24:29.000Z</time>
      </trkpt>
      <trkpt lat="44.33128" lon="0.71828">
        <ele>197.1</ele>
        <time>2025-04-17T12:24:37.000Z</time>
      </trkpt>
      <trkpt lat="44.33137" lon="0.71836">
        <ele>196.7</ele>
        <time>2025-04-17T12:24:45.000Z</time>
      </trkpt>
      <trkpt lat="44.33146" lon="0.71842">
        <ele>196.7</ele>
        <time>2025-04-17T12:24:53.000Z</time>
      </trkpt>
      <trkpt lat="44.33154" lon="0.71849">
        <ele>196.7</ele>
        <time>2025-04-17T12:25:01.000Z</time>
      </trkpt>
      <trkpt lat="44.33162" lon="0.71857">
        <ele>196.2</ele>
        <time>2025-04-17T12:25:09.000Z</time>
      </trkpt>
      <trkpt lat="44.33169" lon="0.71866">
        <ele>195.8</ele>
        <time>2025-04-17T12:25:17.000Z</time>
      </trkpt>
      <trkpt lat="44.33175" lon="0.71875">
        <ele>195.5</ele>
        <time>2025-04-17T12:25:25.000Z</time>
      </trkpt>
      <trkpt lat="44.33184" lon="0.71884">
        <ele>195.1</ele>
        <time>2025-04-17T12:25:35.000Z</time>
      </trkpt>
      <trkpt lat="44.33194" lon="0.71888">
        <ele>195.1</ele>
        <time>2025-04-17T12:25:51.000Z</time>
      </trkpt>
      <trkpt lat="44.33205" lon="0.71887">
        <ele>195.2</ele>
        <time>2025-04-17T12:25:59.000Z</time>
      </trkpt>
      <trkpt lat="44.33215" lon="0.71885">
        <ele>195.5</ele>
        <time>2025-04-17T12:26:07.000Z</time>
      </trkpt>
      <trkpt lat="44.33225" lon="0.71885">
        <ele>195.4</ele>
        <time>2025-04-17T12:26:15.000Z</time>
      </trkpt>
      <trkpt lat="44.33234" lon="0.71882">
        <ele>195.7</ele>
        <time>2025-04-17T12:26:23.000Z</time>
      </trkpt>
      <trkpt lat="44.33243" lon="0.71885">
        <ele>195.4</ele>
        <time>2025-04-17T12:26:31.000Z</time>
      </trkpt>
      <trkpt lat="44.33253" lon="0.71882">
        <ele>195.7</ele>
        <time>2025-04-17T12:26:39.000Z</time>
      </trkpt>
      <trkpt lat="44.33262" lon="0.71878">
        <ele>196</ele>
        <time>2025-04-17T12:26:45.000Z</time>
      </trkpt>
      <trkpt lat="44.33271" lon="0.71873">
        <ele>196.3</ele>
        <time>2025-04-17T12:26:54.000Z</time>
      </trkpt>
      <trkpt lat="44.3328" lon="0.71868">
        <ele>196.3</ele>
        <time>2025-04-17T12:27:02.000Z</time>
      </trkpt>
      <trkpt lat="44.33288" lon="0.71863">
        <ele>195.8</ele>
        <time>2025-04-17T12:27:10.000Z</time>
      </trkpt>
      <trkpt lat="44.33296" lon="0.71852">
        <ele>196</ele>
        <time>2025-04-17T12:27:18.000Z</time>
      </trkpt>
      <trkpt lat="44.33304" lon="0.71845">
        <ele>195.9</ele>
        <time>2025-04-17T12:27:26.000Z</time>
      </trkpt>
      <trkpt lat="44.33312" lon="0.71837">
        <ele>196.6</ele>
        <time>2025-04-17T12:27:34.000Z</time>
      </trkpt>
      <trkpt lat="44.33322" lon="0.71833">
        <ele>197.1</ele>
        <time>2025-04-17T12:27:42.000Z</time>
      </trkpt>
      <trkpt lat="44.33334" lon="0.71832">
        <ele>197.2</ele>
        <time>2025-04-17T12:28:06.000Z</time>
      </trkpt>
      <trkpt lat="44.33345" lon="0.71834">
        <ele>198.6</ele>
        <time>2025-04-17T12:28:14.000Z</time>
      </trkpt>
      <trkpt lat="44.33354" lon="0.7184">
        <ele>199.6</ele>
        <time>2025-04-17T12:28:22.000Z</time>
      </trkpt>
      <trkpt lat="44.3336" lon="0.71848">
        <ele>200.4</ele>
        <time>2025-04-17T12:28:30.000Z</time>
      </trkpt>
      <trkpt lat="44.33369" lon="0.71851">
        <ele>201.2</ele>
        <time>2025-04-17T12:28:38.000Z</time>
      </trkpt>
      <trkpt lat="44.33379" lon="0.71852">
        <ele>202.3</ele>
        <time>2025-04-17T12:28:46.000Z</time>
      </trkpt>
      <trkpt lat="44.33389" lon="0.71852">
        <ele>203.3</ele>
        <time>2025-04-17T12:28:54.000Z</time>
      </trkpt>
      <trkpt lat="44.33399" lon="0.71849">
        <ele>204</ele>
        <time>2025-04-17T12:29:02.000Z</time>
      </trkpt>
      <trkpt lat="44.3341" lon="0.71849">
        <ele>204.6</ele>
        <time>2025-04-17T12:29:12.000Z</time>
      </trkpt>
      <trkpt lat="44.3342" lon="0.71851">
        <ele>205.3</ele>
        <time>2025-04-17T12:29:20.000Z</time>
      </trkpt>
      <trkpt lat="44.33429" lon="0.7185">
        <ele>206.1</ele>
        <time>2025-04-17T12:29:28.000Z</time>
      </trkpt>
      <trkpt lat="44.33439" lon="0.71849">
        <ele>207</ele>
        <time>2025-04-17T12:29:36.000Z</time>
      </trkpt>
      <trkpt lat="44.33449" lon="0.71849">
        <ele>207.7</ele>
        <time>2025-04-17T12:29:44.000Z</time>
      </trkpt>
      <trkpt lat="44.33458" lon="0.71848">
        <ele>208.2</ele>
        <time>2025-04-17T12:29:52.000Z</time>
      </trkpt>
      <trkpt lat="44.33467" lon="0.71848">
        <ele>208.7</ele>
        <time>2025-04-17T12:30:00.000Z</time>
      </trkpt>
      <trkpt lat="44.33477" lon="0.7185">
        <ele>209.2</ele>
        <time>2025-04-17T12:30:10.000Z</time>
      </trkpt>
      <trkpt lat="44.33487" lon="0.71848">
        <ele>209.8</ele>
        <time>2025-04-17T12:30:18.000Z</time>
      </trkpt>
      <trkpt lat="44.33497" lon="0.71849">
        <ele>210.4</ele>
        <time>2025-04-17T12:30:26.000Z</time>
      </trkpt>
      <trkpt lat="44.33506" lon="0.7185">
        <ele>210.9</ele>
        <time>2025-04-17T12:30:34.000Z</time>
      </trkpt>
      <trkpt lat="44.33516" lon="0.71849">
        <ele>211.4</ele>
        <time>2025-04-17T12:30:42.000Z</time>
      </trkpt>
      <trkpt lat="44.33525" lon="0.71848">
        <ele>211.8</ele>
        <time>2025-04-17T12:30:50.000Z</time>
      </trkpt>
      <trkpt lat="44.33534" lon="0.7185">
        <ele>212.2</ele>
        <time>2025-04-17T12:30:58.000Z</time>
      </trkpt>
      <trkpt lat="44.33543" lon="0.71855">
        <ele>212.5</ele>
        <time>2025-04-17T12:31:06.000Z</time>
      </trkpt>
      <trkpt lat="44.33552" lon="0.71856">
        <ele>212.9</ele>
        <time>2025-04-17T12:31:18.000Z</time>
      </trkpt>
      <trkpt lat="44.33561" lon="0.71851">
        <ele>213.2</ele>
        <time>2025-04-17T12:31:26.000Z</time>
      </trkpt>
      <trkpt lat="44.33569" lon="0.71846">
        <ele>213.5</ele>
        <time>2025-04-17T12:31:34.000Z</time>
      </trkpt>
      <trkpt lat="44.33578" lon="0.71845">
        <ele>213.8</ele>
        <time>2025-04-17T12:31:42.000Z</time>
      </trkpt>
      <trkpt lat="44.33587" lon="0.71848">
        <ele>214</ele>
        <time>2025-04-17T12:31:50.000Z</time>
      </trkpt>
      <trkpt lat="44.33596" lon="0.71849">
        <ele>214</ele>
        <time>2025-04-17T12:31:58.000Z</time>
      </trkpt>
      <trkpt lat="44.33605" lon="0.71847">
        <ele>214</ele>
        <time>2025-04-17T12:32:06.000Z</time>
      </trkpt>
      <trkpt lat="44.33614" lon="0.71846">
        <ele>214.1</ele>
        <time>2025-04-17T12:32:14.000Z</time>
      </trkpt>
      <trkpt lat="44.33624" lon="0.71848">
        <ele>214.5</ele>
        <time>2025-04-17T12:32:24.000Z</time>
      </trkpt>
      <trkpt lat="44.33634" lon="0.71845">
        <ele>214.8</ele>
        <time>2025-04-17T12:32:34.000Z</time>
      </trkpt>
      <trkpt lat="44.33643" lon="0.71844">
        <ele>215.2</ele>
        <time>2025-04-17T12:32:44.000Z</time>
      </trkpt>
      <trkpt lat="44.33652" lon="0.71847">
        <ele>215.5</ele>
        <time>2025-04-17T12:32:58.000Z</time>
      </trkpt>
      <trkpt lat="44.3366" lon="0.71844">
        <ele>215.8</ele>
        <time>2025-04-17T12:33:06.000Z</time>
      </trkpt>
      <trkpt lat="44.33669" lon="0.7184">
        <ele>215.9</ele>
        <time>2025-04-17T12:33:14.000Z</time>
      </trkpt>
      <trkpt lat="44.33678" lon="0.71838">
        <ele>215.6</ele>
        <time>2025-04-17T12:33:22.000Z</time>
      </trkpt>
      <trkpt lat="44.33687" lon="0.71838">
        <ele>215.3</ele>
        <time>2025-04-17T12:33:30.000Z</time>
      </trkpt>
      <trkpt lat="44.33696" lon="0.71836">
        <ele>215</ele>
        <time>2025-04-17T12:33:58.000Z</time>
      </trkpt>
      <trkpt lat="44.33706" lon="0.71833">
        <ele>214.6</ele>
        <time>2025-04-17T12:34:06.000Z</time>
      </trkpt>
      <trkpt lat="44.33716" lon="0.71833">
        <ele>214.2</ele>
        <time>2025-04-17T12:34:14.000Z</time>
      </trkpt>
      <trkpt lat="44.33726" lon="0.71832">
        <ele>214</ele>
        <time>2025-04-17T12:34:22.000Z</time>
      </trkpt>
      <trkpt lat="44.33735" lon="0.7183">
        <ele>213.9</ele>
        <time>2025-04-17T12:34:30.000Z</time>
      </trkpt>
      <trkpt lat="44.33745" lon="0.71829">
        <ele>213.9</ele>
        <time>2025-04-17T12:34:52.000Z</time>
      </trkpt>
      <trkpt lat="44.33755" lon="0.71827">
        <ele>213.5</ele>
        <time>2025-04-17T12:35:00.000Z</time>
      </trkpt>
      <trkpt lat="44.33766" lon="0.71825">
        <ele>212.7</ele>
        <time>2025-04-17T12:35:08.000Z</time>
      </trkpt>
      <trkpt lat="44.33776" lon="0.71824">
        <ele>212.1</ele>
        <time>2025-04-17T12:35:16.000Z</time>
      </trkpt>
      <trkpt lat="44.33786" lon="0.71822">
        <ele>211.8</ele>
        <time>2025-04-17T12:35:24.000Z</time>
      </trkpt>
      <trkpt lat="44.33796" lon="0.7182">
        <ele>211.7</ele>
        <time>2025-04-17T12:35:32.000Z</time>
      </trkpt>
      <trkpt lat="44.33806" lon="0.71821">
        <ele>211.4</ele>
        <time>2025-04-17T12:35:40.000Z</time>
      </trkpt>
      <trkpt lat="44.33816" lon="0.71823">
        <ele>211.2</ele>
        <time>2025-04-17T12:35:48.000Z</time>
      </trkpt>
      <trkpt lat="44.33825" lon="0.71826">
        <ele>211.1</ele>
        <time>2025-04-17T12:35:56.000Z</time>
      </trkpt>
      <trkpt lat="44.33836" lon="0.71828">
        <ele>211</ele>
        <time>2025-04-17T12:36:04.000Z</time>
      </trkpt>
      <trkpt lat="44.33846" lon="0.71828">
        <ele>211</ele>
        <time>2025-04-17T12:36:12.000Z</time>
      </trkpt>
      <trkpt lat="44.33854" lon="0.71832">
        <ele>211</ele>
        <time>2025-04-17T12:36:20.000Z</time>
      </trkpt>
      <trkpt lat="44.33864" lon="0.71838">
        <ele>210.7</ele>
        <time>2025-04-17T12:36:28.000Z</time>
      </trkpt>
      <trkpt lat="44.33874" lon="0.71841">
        <ele>210.3</ele>
        <time>2025-04-17T12:36:36.000Z</time>
      </trkpt>
      <trkpt lat="44.33884" lon="0.71844">
        <ele>209.8</ele>
        <time>2025-04-17T12:36:44.000Z</time>
      </trkpt>
      <trkpt lat="44.33893" lon="0.71847">
        <ele>209.4</ele>
        <time>2025-04-17T12:36:52.000Z</time>
      </trkpt>
      <trkpt lat="44.33902" lon="0.71849">
        <ele>209</ele>
        <time>2025-04-17T12:37:00.000Z</time>
      </trkpt>
      <trkpt lat="44.33912" lon="0.71851">
        <ele>208.5</ele>
        <time>2025-04-17T12:37:08.000Z</time>
      </trkpt>
      <trkpt lat="44.33921" lon="0.71852">
        <ele>208</ele>
        <time>2025-04-17T12:37:16.000Z</time>
      </trkpt>
      <trkpt lat="44.3393" lon="0.71852">
        <ele>207.3</ele>
        <time>2025-04-17T12:37:24.000Z</time>
      </trkpt>
      <trkpt lat="44.3394" lon="0.71853">
        <ele>206.6</ele>
        <time>2025-04-17T12:37:32.000Z</time>
      </trkpt>
      <trkpt lat="44.33949" lon="0.71853">
        <ele>206.1</ele>
        <time>2025-04-17T12:37:40.000Z</time>
      </trkpt>
      <trkpt lat="44.33959" lon="0.7185">
        <ele>205.9</ele>
        <time>2025-04-17T12:37:50.000Z</time>
      </trkpt>
      <trkpt lat="44.33969" lon="0.71847">
        <ele>205.6</ele>
        <time>2025-04-17T12:38:00.000Z</time>
      </trkpt>
      <trkpt lat="44.33979" lon="0.71845">
        <ele>205.4</ele>
        <time>2025-04-17T12:38:08.000Z</time>
      </trkpt>
      <trkpt lat="44.33988" lon="0.71843">
        <ele>205.1</ele>
        <time>2025-04-17T12:38:16.000Z</time>
      </trkpt>
      <trkpt lat="44.33999" lon="0.71843">
        <ele>204.7</ele>
        <time>2025-04-17T12:38:24.000Z</time>
      </trkpt>
      <trkpt lat="44.34009" lon="0.71843">
        <ele>204.1</ele>
        <time>2025-04-17T12:38:32.000Z</time>
      </trkpt>
      <trkpt lat="44.34019" lon="0.7184">
        <ele>203.5</ele>
        <time>2025-04-17T12:38:40.000Z</time>
      </trkpt>
      <trkpt lat="44.34028" lon="0.71839">
        <ele>203</ele>
        <time>2025-04-17T12:38:48.000Z</time>
      </trkpt>
      <trkpt lat="44.34038" lon="0.7184">
        <ele>203</ele>
        <time>2025-04-17T12:38:56.000Z</time>
      </trkpt>
      <trkpt lat="44.34048" lon="0.71841">
        <ele>203</ele>
        <time>2025-04-17T12:39:04.000Z</time>
      </trkpt>
      <trkpt lat="44.34058" lon="0.71841">
        <ele>203.1</ele>
        <time>2025-04-17T12:39:14.000Z</time>
      </trkpt>
      <trkpt lat="44.34067" lon="0.71841">
        <ele>203.4</ele>
        <time>2025-04-17T12:39:22.000Z</time>
      </trkpt>
      <trkpt lat="44.34077" lon="0.71841">
        <ele>203.8</ele>
        <time>2025-04-17T12:39:30.000Z</time>
      </trkpt>
      <trkpt lat="44.34086" lon="0.71842">
        <ele>204.3</ele>
        <time>2025-04-17T12:39:40.000Z</time>
      </trkpt>
      <trkpt lat="44.34098" lon="0.71849">
        <ele>205.3</ele>
        <time>2025-04-17T12:39:56.000Z</time>
      </trkpt>
      <trkpt lat="44.34107" lon="0.71853">
        <ele>206</ele>
        <time>2025-04-17T12:40:07.000Z</time>
      </trkpt>
      <trkpt lat="44.34117" lon="0.71854">
        <ele>206.6</ele>
        <time>2025-04-17T12:40:12.000Z</time>
      </trkpt>
      <trkpt lat="44.34126" lon="0.71854">
        <ele>207.2</ele>
        <time>2025-04-17T12:40:20.000Z</time>
      </trkpt>
      <trkpt lat="44.34135" lon="0.71853">
        <ele>207.8</ele>
        <time>2025-04-17T12:40:28.000Z</time>
      </trkpt>
      <trkpt lat="44.34145" lon="0.71853">
        <ele>208.5</ele>
        <time>2025-04-17T12:40:38.000Z</time>
      </trkpt>
      <trkpt lat="44.34155" lon="0.71851">
        <ele>209.3</ele>
        <time>2025-04-17T12:40:48.000Z</time>
      </trkpt>
      <trkpt lat="44.34164" lon="0.71849">
        <ele>210.2</ele>
        <time>2025-04-17T12:40:58.000Z</time>
      </trkpt>
      <trkpt lat="44.34173" lon="0.71848">
        <ele>210.3</ele>
        <time>2025-04-17T12:41:06.000Z</time>
      </trkpt>
      <trkpt lat="44.34182" lon="0.71848">
        <ele>210.1</ele>
        <time>2025-04-17T12:41:16.000Z</time>
      </trkpt>
      <trkpt lat="44.34192" lon="0.71846">
        <ele>210.2</ele>
        <time>2025-04-17T12:41:24.000Z</time>
      </trkpt>
      <trkpt lat="44.34202" lon="0.71844">
        <ele>210.7</ele>
        <time>2025-04-17T12:41:32.000Z</time>
      </trkpt>
      <trkpt lat="44.34212" lon="0.71844">
        <ele>210.9</ele>
        <time>2025-04-17T12:41:40.000Z</time>
      </trkpt>
      <trkpt lat="44.34222" lon="0.71844">
        <ele>211.2</ele>
        <time>2025-04-17T12:41:48.000Z</time>
      </trkpt>
      <trkpt lat="44.34232" lon="0.71845">
        <ele>211.1</ele>
        <time>2025-04-17T12:41:56.000Z</time>
      </trkpt>
      <trkpt lat="44.34241" lon="0.71847">
        <ele>211</ele>
        <time>2025-04-17T12:42:04.000Z</time>
      </trkpt>
      <trkpt lat="44.3425" lon="0.71848">
        <ele>211</ele>
        <time>2025-04-17T12:42:12.000Z</time>
      </trkpt>
      <trkpt lat="44.3426" lon="0.71851">
        <ele>211.2</ele>
        <time>2025-04-17T12:42:20.000Z</time>
      </trkpt>
      <trkpt lat="44.34269" lon="0.71851">
        <ele>211.4</ele>
        <time>2025-04-17T12:42:27.000Z</time>
      </trkpt>
      <trkpt lat="44.34278" lon="0.71851">
        <ele>211.6</ele>
        <time>2025-04-17T12:42:37.000Z</time>
      </trkpt>
      <trkpt lat="44.34288" lon="0.71847">
        <ele>211.8</ele>
        <time>2025-04-17T12:42:49.000Z</time>
      </trkpt>
      <trkpt lat="44.34297" lon="0.71846">
        <ele>212.2</ele>
        <time>2025-04-17T12:42:55.000Z</time>
      </trkpt>
      <trkpt lat="44.34306" lon="0.71844">
        <ele>212.4</ele>
        <time>2025-04-17T12:43:03.000Z</time>
      </trkpt>
      <trkpt lat="44.34315" lon="0.71839">
        <ele>212.5</ele>
        <time>2025-04-17T12:43:11.000Z</time>
      </trkpt>
      <trkpt lat="44.34325" lon="0.71836">
        <ele>212.7</ele>
        <time>2025-04-17T12:43:19.000Z</time>
      </trkpt>
      <trkpt lat="44.34334" lon="0.71833">
        <ele>212.9</ele>
        <time>2025-04-17T12:43:29.000Z</time>
      </trkpt>
      <trkpt lat="44.34345" lon="0.71832">
        <ele>212.5</ele>
        <time>2025-04-17T12:43:39.000Z</time>
      </trkpt>
      <trkpt lat="44.34355" lon="0.71834">
        <ele>212.2</ele>
        <time>2025-04-17T12:43:47.000Z</time>
      </trkpt>
      <trkpt lat="44.34365" lon="0.71835">
        <ele>212.1</ele>
        <time>2025-04-17T12:43:55.000Z</time>
      </trkpt>
      <trkpt lat="44.34375" lon="0.71837">
        <ele>212.1</ele>
        <time>2025-04-17T12:44:05.000Z</time>
      </trkpt>
      <trkpt lat="44.34384" lon="0.71838">
        <ele>212.2</ele>
        <time>2025-04-17T12:44:13.000Z</time>
      </trkpt>
      <trkpt lat="44.34393" lon="0.71838">
        <ele>212.2</ele>
        <time>2025-04-17T12:44:23.000Z</time>
      </trkpt>
      <trkpt lat="44.34403" lon="0.71839">
        <ele>212.3</ele>
        <time>2025-04-17T12:44:31.000Z</time>
      </trkpt>
      <trkpt lat="44.34413" lon="0.71837">
        <ele>212.2</ele>
        <time>2025-04-17T12:44:39.000Z</time>
      </trkpt>
      <trkpt lat="44.34424" lon="0.71836">
        <ele>212.1</ele>
        <time>2025-04-17T12:44:47.000Z</time>
      </trkpt>
      <trkpt lat="44.34434" lon="0.71836">
        <ele>212.1</ele>
        <time>2025-04-17T12:44:55.000Z</time>
      </trkpt>
      <trkpt lat="44.34443" lon="0.71836">
        <ele>212</ele>
        <time>2025-04-17T12:45:03.000Z</time>
      </trkpt>
      <trkpt lat="44.34453" lon="0.71835">
        <ele>211.7</ele>
        <time>2025-04-17T12:45:11.000Z</time>
      </trkpt>
      <trkpt lat="44.34463" lon="0.71836">
        <ele>211.3</ele>
        <time>2025-04-17T12:45:19.000Z</time>
      </trkpt>
      <trkpt lat="44.34472" lon="0.71836">
        <ele>211</ele>
        <time>2025-04-17T12:45:27.000Z</time>
      </trkpt>
      <trkpt lat="44.34482" lon="0.71834">
        <ele>210.6</ele>
        <time>2025-04-17T12:45:35.000Z</time>
      </trkpt>
      <trkpt lat="44.34492" lon="0.71835">
        <ele>210.3</ele>
        <time>2025-04-17T12:45:43.000Z</time>
      </trkpt>
      <trkpt lat="44.34502" lon="0.71837">
        <ele>209.8</ele>
        <time>2025-04-17T12:45:51.000Z</time>
      </trkpt>
      <trkpt lat="44.34511" lon="0.71839">
        <ele>209.4</ele>
        <time>2025-04-17T12:45:59.000Z</time>
      </trkpt>
      <trkpt lat="44.3452" lon="0.7184">
        <ele>209</ele>
        <time>2025-04-17T12:46:08.000Z</time>
      </trkpt>
      <trkpt lat="44.3453" lon="0.71841">
        <ele>208.7</ele>
        <time>2025-04-17T12:46:18.000Z</time>
      </trkpt>
      <trkpt lat="44.3454" lon="0.71841">
        <ele>208.4</ele>
        <time>2025-04-17T12:46:32.000Z</time>
      </trkpt>
      <trkpt lat="44.34548" lon="0.71839">
        <ele>208.2</ele>
        <time>2025-04-17T12:46:42.000Z</time>
      </trkpt>
      <trkpt lat="44.34555" lon="0.71846">
        <ele>208</ele>
        <time>2025-04-17T12:48:22.000Z</time>
      </trkpt>
      <trkpt lat="44.3456" lon="0.71859">
        <ele>208</ele>
        <time>2025-04-17T12:48:32.000Z</time>
      </trkpt>
      <trkpt lat="44.34563" lon="0.71873">
        <ele>207.6</ele>
        <time>2025-04-17T12:48:42.000Z</time>
      </trkpt>
      <trkpt lat="44.34568" lon="0.71884">
        <ele>207.2</ele>
        <time>2025-04-17T12:48:49.000Z</time>
      </trkpt>
      <trkpt lat="44.34574" lon="0.71895">
        <ele>206.9</ele>
        <time>2025-04-17T12:48:57.000Z</time>
      </trkpt>
      <trkpt lat="44.34579" lon="0.71907">
        <ele>206.9</ele>
        <time>2025-04-17T12:49:07.000Z</time>
      </trkpt>
      <trkpt lat="44.34582" lon="0.71919">
        <ele>206.9</ele>
        <time>2025-04-17T12:49:13.000Z</time>
      </trkpt>
      <trkpt lat="44.34585" lon="0.71933">
        <ele>206.4</ele>
        <time>2025-04-17T12:49:21.000Z</time>
      </trkpt>
      <trkpt lat="44.34589" lon="0.71946">
        <ele>206</ele>
        <time>2025-04-17T12:49:29.000Z</time>
      </trkpt>
      <trkpt lat="44.34593" lon="0.71958">
        <ele>206</ele>
        <time>2025-04-17T12:49:37.000Z</time>
      </trkpt>
      <trkpt lat="44.34596" lon="0.71971">
        <ele>206</ele>
        <time>2025-04-17T12:49:45.000Z</time>
      </trkpt>
      <trkpt lat="44.34601" lon="0.71983">
        <ele>205.8</ele>
        <time>2025-04-17T12:49:53.000Z</time>
      </trkpt>
      <trkpt lat="44.34605" lon="0.71997">
        <ele>205.3</ele>
        <time>2025-04-17T12:50:03.000Z</time>
      </trkpt>
      <trkpt lat="44.34607" lon="0.7201">
        <ele>205.1</ele>
        <time>2025-04-17T12:50:11.000Z</time>
      </trkpt>
      <trkpt lat="44.34612" lon="0.72021">
        <ele>205</ele>
        <time>2025-04-17T12:50:19.000Z</time>
      </trkpt>
      <trkpt lat="44.34618" lon="0.72034">
        <ele>205</ele>
        <time>2025-04-17T12:50:27.000Z</time>
      </trkpt>
      <trkpt lat="44.34623" lon="0.72046">
        <ele>205</ele>
        <time>2025-04-17T12:50:35.000Z</time>
      </trkpt>
      <trkpt lat="44.34627" lon="0.72057">
        <ele>205</ele>
        <time>2025-04-17T12:50:43.000Z</time>
      </trkpt>
      <trkpt lat="44.34632" lon="0.72069">
        <ele>205.1</ele>
        <time>2025-04-17T12:50:51.000Z</time>
      </trkpt>
      <trkpt lat="44.34637" lon="0.72081">
        <ele>205.1</ele>
        <time>2025-04-17T12:50:59.000Z</time>
      </trkpt>
      <trkpt lat="44.34644" lon="0.72092">
        <ele>204.9</ele>
        <time>2025-04-17T12:51:07.000Z</time>
      </trkpt>
      <trkpt lat="44.34652" lon="0.72099">
        <ele>204.5</ele>
        <time>2025-04-17T12:51:13.000Z</time>
      </trkpt>
      <trkpt lat="44.34659" lon="0.72109">
        <ele>203.7</ele>
        <time>2025-04-17T12:51:21.000Z</time>
      </trkpt>
      <trkpt lat="44.34666" lon="0.7212">
        <ele>203.1</ele>
        <time>2025-04-17T12:51:31.000Z</time>
      </trkpt>
      <trkpt lat="44.34671" lon="0.72132">
        <ele>202.7</ele>
        <time>2025-04-17T12:51:39.000Z</time>
      </trkpt>
      <trkpt lat="44.34676" lon="0.72146">
        <ele>201.9</ele>
        <time>2025-04-17T12:51:48.000Z</time>
      </trkpt>
      <trkpt lat="44.34682" lon="0.72158">
        <ele>200.9</ele>
        <time>2025-04-17T12:51:56.000Z</time>
      </trkpt>
      <trkpt lat="44.34686" lon="0.7217">
        <ele>200.3</ele>
        <time>2025-04-17T12:52:04.000Z</time>
      </trkpt>
      <trkpt lat="44.34689" lon="0.72184">
        <ele>200.1</ele>
        <time>2025-04-17T12:52:14.000Z</time>
      </trkpt>
      <trkpt lat="44.34697" lon="0.72193">
        <ele>199.9</ele>
        <time>2025-04-17T12:52:20.000Z</time>
      </trkpt>
      <trkpt lat="44.34704" lon="0.72203">
        <ele>199.6</ele>
        <time>2025-04-17T12:52:28.000Z</time>
      </trkpt>
      <trkpt lat="44.3471" lon="0.72215">
        <ele>199.5</ele>
        <time>2025-04-17T12:52:36.000Z</time>
      </trkpt>
      <trkpt lat="44.34717" lon="0.72226">
        <ele>199.8</ele>
        <time>2025-04-17T12:52:44.000Z</time>
      </trkpt>
      <trkpt lat="44.34723" lon="0.72238">
        <ele>200</ele>
        <time>2025-04-17T12:52:52.000Z</time>
      </trkpt>
      <trkpt lat="44.34729" lon="0.72249">
        <ele>200</ele>
        <time>2025-04-17T12:53:00.000Z</time>
      </trkpt>
      <trkpt lat="44.34734" lon="0.72261">
        <ele>200.4</ele>
        <time>2025-04-17T12:53:08.000Z</time>
      </trkpt>
      <trkpt lat="44.34741" lon="0.72271">
        <ele>200.8</ele>
        <time>2025-04-17T12:53:16.000Z</time>
      </trkpt>
      <trkpt lat="44.34746" lon="0.72283">
        <ele>201.4</ele>
        <time>2025-04-17T12:53:24.000Z</time>
      </trkpt>
      <trkpt lat="44.34751" lon="0.72296">
        <ele>202.3</ele>
        <time>2025-04-17T12:53:32.000Z</time>
      </trkpt>
      <trkpt lat="44.34756" lon="0.72306">
        <ele>203</ele>
        <time>2025-04-17T12:53:40.000Z</time>
      </trkpt>
      <trkpt lat="44.34761" lon="0.72317">
        <ele>203.4</ele>
        <time>2025-04-17T12:53:48.000Z</time>
      </trkpt>
      <trkpt lat="44.34767" lon="0.72328">
        <ele>203.8</ele>
        <time>2025-04-17T12:53:56.000Z</time>
      </trkpt>
      <trkpt lat="44.34772" lon="0.7234">
        <ele>204</ele>
        <time>2025-04-17T12:54:04.000Z</time>
      </trkpt>
      <trkpt lat="44.34779" lon="0.72351">
        <ele>204</ele>
        <time>2025-04-17T12:54:12.000Z</time>
      </trkpt>
      <trkpt lat="44.34784" lon="0.72362">
        <ele>203.8</ele>
        <time>2025-04-17T12:54:20.000Z</time>
      </trkpt>
      <trkpt lat="44.34789" lon="0.72374">
        <ele>204</ele>
        <time>2025-04-17T12:54:28.000Z</time>
      </trkpt>
      <trkpt lat="44.34795" lon="0.72385">
        <ele>204.2</ele>
        <time>2025-04-17T12:54:38.000Z</time>
      </trkpt>
      <trkpt lat="44.34801" lon="0.72395">
        <ele>204.1</ele>
        <time>2025-04-17T12:54:46.000Z</time>
      </trkpt>
      <trkpt lat="44.34807" lon="0.72407">
        <ele>203.9</ele>
        <time>2025-04-17T12:54:54.000Z</time>
      </trkpt>
      <trkpt lat="44.34812" lon="0.72418">
        <ele>203.5</ele>
        <time>2025-04-17T12:55:02.000Z</time>
      </trkpt>
      <trkpt lat="44.34816" lon="0.7243">
        <ele>202.9</ele>
        <time>2025-04-17T12:55:10.000Z</time>
      </trkpt>
      <trkpt lat="44.34822" lon="0.72443">
        <ele>202.5</ele>
        <time>2025-04-17T12:55:19.000Z</time>
      </trkpt>
      <trkpt lat="44.34828" lon="0.72454">
        <ele>202.2</ele>
        <time>2025-04-17T12:55:27.000Z</time>
      </trkpt>
      <trkpt lat="44.34834" lon="0.72466">
        <ele>202</ele>
        <time>2025-04-17T12:55:35.000Z</time>
      </trkpt>
      <trkpt lat="44.34839" lon="0.72478">
        <ele>201.5</ele>
        <time>2025-04-17T12:55:43.000Z</time>
      </trkpt>
      <trkpt lat="44.34846" lon="0.72486">
        <ele>201.1</ele>
        <time>2025-04-17T12:55:51.000Z</time>
      </trkpt>
      <trkpt lat="44.34851" lon="0.72498">
        <ele>201</ele>
        <time>2025-04-17T12:55:59.000Z</time>
      </trkpt>
      <trkpt lat="44.34855" lon="0.72511">
        <ele>201</ele>
        <time>2025-04-17T12:56:07.000Z</time>
      </trkpt>
      <trkpt lat="44.3486" lon="0.72521">
        <ele>201</ele>
        <time>2025-04-17T12:56:13.000Z</time>
      </trkpt>
      <trkpt lat="44.34864" lon="0.72533">
        <ele>201</ele>
        <time>2025-04-17T12:56:21.000Z</time>
      </trkpt>
      <trkpt lat="44.3487" lon="0.72546">
        <ele>201.2</ele>
        <time>2025-04-17T12:56:29.000Z</time>
      </trkpt>
      <trkpt lat="44.34875" lon="0.72556">
        <ele>201.5</ele>
        <time>2025-04-17T12:56:37.000Z</time>
      </trkpt>
      <trkpt lat="44.34881" lon="0.72567">
        <ele>201.7</ele>
        <time>2025-04-17T12:56:47.000Z</time>
      </trkpt>
      <trkpt lat="44.34887" lon="0.72578">
        <ele>201.9</ele>
        <time>2025-04-17T12:56:55.000Z</time>
      </trkpt>
      <trkpt lat="44.3489" lon="0.7259">
        <ele>202.1</ele>
        <time>2025-04-17T12:57:01.000Z</time>
      </trkpt>
      <trkpt lat="44.34896" lon="0.72603">
        <ele>202.3</ele>
        <time>2025-04-17T12:57:09.000Z</time>
      </trkpt>
      <trkpt lat="44.34901" lon="0.72615">
        <ele>202.4</ele>
        <time>2025-04-17T12:57:17.000Z</time>
      </trkpt>
      <trkpt lat="44.34906" lon="0.72627">
        <ele>202.6</ele>
        <time>2025-04-17T12:57:25.000Z</time>
      </trkpt>
      <trkpt lat="44.34911" lon="0.72638">
        <ele>202.8</ele>
        <time>2025-04-17T12:57:55.000Z</time>
      </trkpt>
      <trkpt lat="44.34911" lon="0.7265">
        <ele>202.1</ele>
        <time>2025-04-17T12:58:11.000Z</time>
      </trkpt>
      <trkpt lat="44.34904" lon="0.72655">
        <ele>201.6</ele>
        <time>2025-04-17T12:58:21.000Z</time>
      </trkpt>
      <trkpt lat="44.34895" lon="0.72655">
        <ele>201.5</ele>
        <time>2025-04-17T13:00:17.000Z</time>
      </trkpt>
      <trkpt lat="44.34887" lon="0.7266">
        <ele>201.1</ele>
        <time>2025-04-17T13:00:25.000Z</time>
      </trkpt>
      <trkpt lat="44.34879" lon="0.72667">
        <ele>200.6</ele>
        <time>2025-04-17T13:00:33.000Z</time>
      </trkpt>
      <trkpt lat="44.3487" lon="0.72674">
        <ele>200</ele>
        <time>2025-04-17T13:00:43.000Z</time>
      </trkpt>
      <trkpt lat="44.3486" lon="0.72678">
        <ele>199.6</ele>
        <time>2025-04-17T13:00:51.000Z</time>
      </trkpt>
      <trkpt lat="44.34852" lon="0.72682">
        <ele>199.3</ele>
        <time>2025-04-17T13:00:57.000Z</time>
      </trkpt>
      <trkpt lat="44.34842" lon="0.72687">
        <ele>199.1</ele>
        <time>2025-04-17T13:01:05.000Z</time>
      </trkpt>
      <trkpt lat="44.34834" lon="0.72692">
        <ele>199</ele>
        <time>2025-04-17T13:01:11.000Z</time>
      </trkpt>
      <trkpt lat="44.34825" lon="0.72699">
        <ele>198.5</ele>
        <time>2025-04-17T13:01:19.000Z</time>
      </trkpt>
      <trkpt lat="44.34817" lon="0.72708">
        <ele>198</ele>
        <time>2025-04-17T13:01:27.000Z</time>
      </trkpt>
      <trkpt lat="44.34809" lon="0.72713">
        <ele>197.5</ele>
        <time>2025-04-17T13:01:35.000Z</time>
      </trkpt>
      <trkpt lat="44.34799" lon="0.72711">
        <ele>197.4</ele>
        <time>2025-04-17T13:01:43.000Z</time>
      </trkpt>
      <trkpt lat="44.34791" lon="0.72704">
        <ele>197.7</ele>
        <time>2025-04-17T13:01:51.000Z</time>
      </trkpt>
      <trkpt lat="44.34784" lon="0.72696">
        <ele>197.9</ele>
        <time>2025-04-17T13:01:59.000Z</time>
      </trkpt>
      <trkpt lat="44.34776" lon="0.72689">
        <ele>198.1</ele>
        <time>2025-04-17T13:02:09.000Z</time>
      </trkpt>
      <trkpt lat="44.34767" lon="0.72681">
        <ele>198.1</ele>
        <time>2025-04-17T13:02:17.000Z</time>
      </trkpt>
      <trkpt lat="44.34759" lon="0.72672">
        <ele>198.1</ele>
        <time>2025-04-17T13:02:25.000Z</time>
      </trkpt>
      <trkpt lat="44.34751" lon="0.72665">
        <ele>198.1</ele>
        <time>2025-04-17T13:02:33.000Z</time>
      </trkpt>
      <trkpt lat="44.34742" lon="0.72657">
        <ele>198.1</ele>
        <time>2025-04-17T13:02:43.000Z</time>
      </trkpt>
      <trkpt lat="44.34733" lon="0.72651">
        <ele>197.9</ele>
        <time>2025-04-17T13:02:53.000Z</time>
      </trkpt>
      <trkpt lat="44.34724" lon="0.72649">
        <ele>197.7</ele>
        <time>2025-04-17T13:02:59.000Z</time>
      </trkpt>
      <trkpt lat="44.34715" lon="0.72649">
        <ele>197.3</ele>
        <time>2025-04-17T13:03:05.000Z</time>
      </trkpt>
      <trkpt lat="44.34707" lon="0.7265">
        <ele>196.8</ele>
        <time>2025-04-17T13:03:11.000Z</time>
      </trkpt>
      <trkpt lat="44.34698" lon="0.7265">
        <ele>196.4</ele>
        <time>2025-04-17T13:03:51.000Z</time>
      </trkpt>
      <trkpt lat="44.34689" lon="0.72654">
        <ele>195.7</ele>
        <time>2025-04-17T13:03:57.000Z</time>
      </trkpt>
      <trkpt lat="44.3468" lon="0.72658">
        <ele>195</ele>
        <time>2025-04-17T13:04:05.000Z</time>
      </trkpt>
      <trkpt lat="44.34669" lon="0.72661">
        <ele>194.3</ele>
        <time>2025-04-17T13:04:19.000Z</time>
      </trkpt>
      <trkpt lat="44.3466" lon="0.72665">
        <ele>194.1</ele>
        <time>2025-04-17T13:04:25.000Z</time>
      </trkpt>
      <trkpt lat="44.34651" lon="0.72667">
        <ele>194</ele>
        <time>2025-04-17T13:04:33.000Z</time>
      </trkpt>
      <trkpt lat="44.34642" lon="0.72669">
        <ele>193.9</ele>
        <time>2025-04-17T13:04:41.000Z</time>
      </trkpt>
      <trkpt lat="44.34632" lon="0.72672">
        <ele>194.1</ele>
        <time>2025-04-17T13:04:49.000Z</time>
      </trkpt>
      <trkpt lat="44.34623" lon="0.72676">
        <ele>194.3</ele>
        <time>2025-04-17T13:04:57.000Z</time>
      </trkpt>
      <trkpt lat="44.34614" lon="0.7268">
        <ele>194.4</ele>
        <time>2025-04-17T13:05:05.000Z</time>
      </trkpt>
      <trkpt lat="44.34605" lon="0.72683">
        <ele>194.8</ele>
        <time>2025-04-17T13:05:13.000Z</time>
      </trkpt>
      <trkpt lat="44.34595" lon="0.72686">
        <ele>195.3</ele>
        <time>2025-04-17T13:05:21.000Z</time>
      </trkpt>
      <trkpt lat="44.34586" lon="0.72689">
        <ele>195.9</ele>
        <time>2025-04-17T13:05:29.000Z</time>
      </trkpt>
      <trkpt lat="44.34577" lon="0.7269">
        <ele>196.5</ele>
        <time>2025-04-17T13:05:37.000Z</time>
      </trkpt>
      <trkpt lat="44.34568" lon="0.72694">
        <ele>197.1</ele>
        <time>2025-04-17T13:05:45.000Z</time>
      </trkpt>
      <trkpt lat="44.34559" lon="0.72697">
        <ele>197.6</ele>
        <time>2025-04-17T13:05:53.000Z</time>
      </trkpt>
      <trkpt lat="44.34549" lon="0.72702">
        <ele>197.9</ele>
        <time>2025-04-17T13:06:03.000Z</time>
      </trkpt>
      <trkpt lat="44.34539" lon="0.72706">
        <ele>198.4</ele>
        <time>2025-04-17T13:06:11.000Z</time>
      </trkpt>
      <trkpt lat="44.34528" lon="0.72708">
        <ele>199</ele>
        <time>2025-04-17T13:06:21.000Z</time>
      </trkpt>
      <trkpt lat="44.34519" lon="0.72711">
        <ele>199.7</ele>
        <time>2025-04-17T13:06:29.000Z</time>
      </trkpt>
      <trkpt lat="44.3451" lon="0.72716">
        <ele>200.3</ele>
        <time>2025-04-17T13:06:37.000Z</time>
      </trkpt>
      <trkpt lat="44.34501" lon="0.72719">
        <ele>201</ele>
        <time>2025-04-17T13:06:45.000Z</time>
      </trkpt>
      <trkpt lat="44.34491" lon="0.72721">
        <ele>201.7</ele>
        <time>2025-04-17T13:06:53.000Z</time>
      </trkpt>
      <trkpt lat="44.34482" lon="0.72724">
        <ele>202.2</ele>
        <time>2025-04-17T13:07:03.000Z</time>
      </trkpt>
      <trkpt lat="44.34473" lon="0.72728">
        <ele>202.7</ele>
        <time>2025-04-17T13:07:11.000Z</time>
      </trkpt>
      <trkpt lat="44.34465" lon="0.72731">
        <ele>203.6</ele>
        <time>2025-04-17T13:07:19.000Z</time>
      </trkpt>
      <trkpt lat="44.34456" lon="0.72735">
        <ele>204.6</ele>
        <time>2025-04-17T13:07:27.000Z</time>
      </trkpt>
      <trkpt lat="44.34447" lon="0.72737">
        <ele>205.6</ele>
        <time>2025-04-17T13:07:37.000Z</time>
      </trkpt>
      <trkpt lat="44.34438" lon="0.7274">
        <ele>206.6</ele>
        <time>2025-04-17T13:07:47.000Z</time>
      </trkpt>
      <trkpt lat="44.34429" lon="0.72743">
        <ele>207.6</ele>
        <time>2025-04-17T13:07:55.000Z</time>
      </trkpt>
      <trkpt lat="44.34419" lon="0.72745">
        <ele>208.9</ele>
        <time>2025-04-17T13:08:05.000Z</time>
      </trkpt>
      <trkpt lat="44.34409" lon="0.72748">
        <ele>209.9</ele>
        <time>2025-04-17T13:08:15.000Z</time>
      </trkpt>
      <trkpt lat="44.344" lon="0.72752">
        <ele>210.7</ele>
        <time>2025-04-17T13:08:23.000Z</time>
      </trkpt>
      <trkpt lat="44.34392" lon="0.72755">
        <ele>211.5</ele>
        <time>2025-04-17T13:08:31.000Z</time>
      </trkpt>
      <trkpt lat="44.34383" lon="0.72758">
        <ele>212.1</ele>
        <time>2025-04-17T13:08:39.000Z</time>
      </trkpt>
      <trkpt lat="44.34375" lon="0.72761">
        <ele>212.6</ele>
        <time>2025-04-17T13:08:47.000Z</time>
      </trkpt>
      <trkpt lat="44.34366" lon="0.72763">
        <ele>213.2</ele>
        <time>2025-04-17T13:08:55.000Z</time>
      </trkpt>
      <trkpt lat="44.34356" lon="0.72766">
        <ele>213.6</ele>
        <time>2025-04-17T13:09:05.000Z</time>
      </trkpt>
      <trkpt lat="44.34346" lon="0.7277">
        <ele>214</ele>
        <time>2025-04-17T13:09:13.000Z</time>
      </trkpt>
      <trkpt lat="44.34337" lon="0.72773">
        <ele>214.6</ele>
        <time>2025-04-17T13:09:21.000Z</time>
      </trkpt>
      <trkpt lat="44.34329" lon="0.72775">
        <ele>214.9</ele>
        <time>2025-04-17T13:09:29.000Z</time>
      </trkpt>
      <trkpt lat="44.3432" lon="0.72779">
        <ele>215</ele>
        <time>2025-04-17T13:09:37.000Z</time>
      </trkpt>
      <trkpt lat="44.3431" lon="0.7278">
        <ele>215</ele>
        <time>2025-04-17T13:09:47.000Z</time>
      </trkpt>
      <trkpt lat="44.343" lon="0.72782">
        <ele>215</ele>
        <time>2025-04-17T13:09:55.000Z</time>
      </trkpt>
      <trkpt lat="44.34291" lon="0.72787">
        <ele>215</ele>
        <time>2025-04-17T13:10:03.000Z</time>
      </trkpt>
      <trkpt lat="44.34281" lon="0.72791">
        <ele>215</ele>
        <time>2025-04-17T13:10:13.000Z</time>
      </trkpt>
      <trkpt lat="44.34272" lon="0.72794">
        <ele>214.5</ele>
        <time>2025-04-17T13:10:23.000Z</time>
      </trkpt>
      <trkpt lat="44.34263" lon="0.72796">
        <ele>213.9</ele>
        <time>2025-04-17T13:10:33.000Z</time>
      </trkpt>
      <trkpt lat="44.34253" lon="0.72801">
        <ele>213.2</ele>
        <time>2025-04-17T13:10:43.000Z</time>
      </trkpt>
      <trkpt lat="44.34244" lon="0.72804">
        <ele>212.8</ele>
        <time>2025-04-17T13:10:53.000Z</time>
      </trkpt>
      <trkpt lat="44.34235" lon="0.72807">
        <ele>212.5</ele>
        <time>2025-04-17T13:11:03.000Z</time>
      </trkpt>
      <trkpt lat="44.34227" lon="0.72808">
        <ele>212.2</ele>
        <time>2025-04-17T13:12:13.000Z</time>
      </trkpt>
      <trkpt lat="44.34218" lon="0.7281">
        <ele>211.7</ele>
        <time>2025-04-17T13:14:19.000Z</time>
      </trkpt>
      <trkpt lat="44.34211" lon="0.72805">
        <ele>211.2</ele>
        <time>2025-04-17T13:14:49.000Z</time>
      </trkpt>
      <trkpt lat="44.34207" lon="0.72794">
        <ele>210.9</ele>
        <time>2025-04-17T13:15:27.000Z</time>
      </trkpt>
      <trkpt lat="44.34204" lon="0.72781">
        <ele>210.7</ele>
        <time>2025-04-17T13:15:35.000Z</time>
      </trkpt>
      <trkpt lat="44.34199" lon="0.7277">
        <ele>210.3</ele>
        <time>2025-04-17T13:15:41.000Z</time>
      </trkpt>
      <trkpt lat="44.34191" lon="0.7276">
        <ele>209.8</ele>
        <time>2025-04-17T13:15:49.000Z</time>
      </trkpt>
      <trkpt lat="44.34185" lon="0.72747">
        <ele>209.3</ele>
        <time>2025-04-17T13:15:57.000Z</time>
      </trkpt>
      <trkpt lat="44.3418" lon="0.72736">
        <ele>209</ele>
        <time>2025-04-17T13:16:03.000Z</time>
      </trkpt>
      <trkpt lat="44.34176" lon="0.72723">
        <ele>208.7</ele>
        <time>2025-04-17T13:16:11.000Z</time>
      </trkpt>
      <trkpt lat="44.34171" lon="0.72712">
        <ele>208.3</ele>
        <time>2025-04-17T13:16:17.000Z</time>
      </trkpt>
      <trkpt lat="44.34167" lon="0.72702">
        <ele>208</ele>
        <time>2025-04-17T13:16:25.000Z</time>
      </trkpt>
      <trkpt lat="44.34161" lon="0.7269">
        <ele>207.7</ele>
        <time>2025-04-17T13:16:33.000Z</time>
      </trkpt>
      <trkpt lat="44.34155" lon="0.72679">
        <ele>207.5</ele>
        <time>2025-04-17T13:16:41.000Z</time>
      </trkpt>
      <trkpt lat="44.34149" lon="0.72667">
        <ele>207.1</ele>
        <time>2025-04-17T13:16:49.000Z</time>
      </trkpt>
      <trkpt lat="44.34145" lon="0.72653">
        <ele>207</ele>
        <time>2025-04-17T13:16:57.000Z</time>
      </trkpt>
      <trkpt lat="44.3414" lon="0.72642">
        <ele>207</ele>
        <time>2025-04-17T13:17:05.000Z</time>
      </trkpt>
      <trkpt lat="44.34135" lon="0.72631">
        <ele>206.3</ele>
        <time>2025-04-17T13:17:13.000Z</time>
      </trkpt>
      <trkpt lat="44.3413" lon="0.72621">
        <ele>205.6</ele>
        <time>2025-04-17T13:17:21.000Z</time>
      </trkpt>
      <trkpt lat="44.34125" lon="0.7261">
        <ele>205</ele>
        <time>2025-04-17T13:17:29.000Z</time>
      </trkpt>
      <trkpt lat="44.3412" lon="0.72598">
        <ele>204.7</ele>
        <time>2025-04-17T13:17:37.000Z</time>
      </trkpt>
      <trkpt lat="44.34115" lon="0.72586">
        <ele>204.4</ele>
        <time>2025-04-17T13:17:45.000Z</time>
      </trkpt>
      <trkpt lat="44.3411" lon="0.72576">
        <ele>204.1</ele>
        <time>2025-04-17T13:17:53.000Z</time>
      </trkpt>
      <trkpt lat="44.34103" lon="0.72565">
        <ele>203.3</ele>
        <time>2025-04-17T13:18:01.000Z</time>
      </trkpt>
      <trkpt lat="44.34097" lon="0.72558">
        <ele>202.3</ele>
        <time>2025-04-17T13:18:11.000Z</time>
      </trkpt>
      <trkpt lat="44.34096" lon="0.72546">
        <ele>202.6</ele>
        <time>2025-04-17T13:18:15.000Z</time>
      </trkpt>
      <trkpt lat="44.34092" lon="0.72534">
        <ele>202.6</ele>
        <time>2025-04-17T13:18:21.000Z</time>
      </trkpt>
      <trkpt lat="44.34087" lon="0.72522">
        <ele>202.6</ele>
        <time>2025-04-17T13:18:29.000Z</time>
      </trkpt>
      <trkpt lat="44.34081" lon="0.7251">
        <ele>202.2</ele>
        <time>2025-04-17T13:18:37.000Z</time>
      </trkpt>
      <trkpt lat="44.34075" lon="0.72499">
        <ele>201.9</ele>
        <time>2025-04-17T13:18:45.000Z</time>
      </trkpt>
      <trkpt lat="44.34069" lon="0.72489">
        <ele>201.4</ele>
        <time>2025-04-17T13:18:53.000Z</time>
      </trkpt>
      <trkpt lat="44.34065" lon="0.72475">
        <ele>201.2</ele>
        <time>2025-04-17T13:19:01.000Z</time>
      </trkpt>
      <trkpt lat="44.34061" lon="0.72461">
        <ele>200.7</ele>
        <time>2025-04-17T13:19:09.000Z</time>
      </trkpt>
      <trkpt lat="44.34057" lon="0.72448">
        <ele>200.2</ele>
        <time>2025-04-17T13:19:15.000Z</time>
      </trkpt>
      <trkpt lat="44.34054" lon="0.72435">
        <ele>199.8</ele>
        <time>2025-04-17T13:19:23.000Z</time>
      </trkpt>
      <trkpt lat="44.3405" lon="0.7242">
        <ele>199.4</ele>
        <time>2025-04-17T13:19:31.000Z</time>
      </trkpt>
      <trkpt lat="44.34047" lon="0.72406">
        <ele>199.1</ele>
        <time>2025-04-17T13:19:40.000Z</time>
      </trkpt>
      <trkpt lat="44.34046" lon="0.72392">
        <ele>199</ele>
        <time>2025-04-17T13:19:47.000Z</time>
      </trkpt>
      <trkpt lat="44.34042" lon="0.72381">
        <ele>198.5</ele>
        <time>2025-04-17T13:19:55.000Z</time>
      </trkpt>
      <trkpt lat="44.34037" lon="0.7237">
        <ele>198</ele>
        <time>2025-04-17T13:20:03.000Z</time>
      </trkpt>
      <trkpt lat="44.34032" lon="0.7236">
        <ele>197.5</ele>
        <time>2025-04-17T13:20:11.000Z</time>
      </trkpt>
      <trkpt lat="44.34027" lon="0.7235">
        <ele>196.9</ele>
        <time>2025-04-17T13:20:19.000Z</time>
      </trkpt>
      <trkpt lat="44.3402" lon="0.7234">
        <ele>196.5</ele>
        <time>2025-04-17T13:20:27.000Z</time>
      </trkpt>
      <trkpt lat="44.34014" lon="0.72331">
        <ele>196.1</ele>
        <time>2025-04-17T13:20:35.000Z</time>
      </trkpt>
      <trkpt lat="44.34007" lon="0.72325">
        <ele>195.8</ele>
        <time>2025-04-17T13:20:43.000Z</time>
      </trkpt>
      <trkpt lat="44.34002" lon="0.72334">
        <ele>195.1</ele>
        <time>2025-04-17T13:20:55.000Z</time>
      </trkpt>
      <trkpt lat="44.33999" lon="0.72347">
        <ele>195</ele>
        <time>2025-04-17T13:21:03.000Z</time>
      </trkpt>
      <trkpt lat="44.33997" lon="0.72362">
        <ele>194.9</ele>
        <time>2025-04-17T13:21:13.000Z</time>
      </trkpt>
      <trkpt lat="44.33994" lon="0.72374">
        <ele>194.7</ele>
        <time>2025-04-17T13:21:21.000Z</time>
      </trkpt>
      <trkpt lat="44.3399" lon="0.72387">
        <ele>194.3</ele>
        <time>2025-04-17T13:21:29.000Z</time>
      </trkpt>
      <trkpt lat="44.33988" lon="0.724">
        <ele>194.1</ele>
        <time>2025-04-17T13:21:37.000Z</time>
      </trkpt>
      <trkpt lat="44.33985" lon="0.72414">
        <ele>193.9</ele>
        <time>2025-04-17T13:21:47.000Z</time>
      </trkpt>
      <trkpt lat="44.33982" lon="0.72429">
        <ele>193.3</ele>
        <time>2025-04-17T13:21:57.000Z</time>
      </trkpt>
      <trkpt lat="44.33978" lon="0.72441">
        <ele>192.6</ele>
        <time>2025-04-17T13:22:05.000Z</time>
      </trkpt>
      <trkpt lat="44.33976" lon="0.72453">
        <ele>192.2</ele>
        <time>2025-04-17T13:22:11.000Z</time>
      </trkpt>
      <trkpt lat="44.33974" lon="0.72468">
        <ele>192.1</ele>
        <time>2025-04-17T13:22:21.000Z</time>
      </trkpt>
      <trkpt lat="44.33971" lon="0.72482">
        <ele>191.6</ele>
        <time>2025-04-17T13:22:29.000Z</time>
      </trkpt>
      <trkpt lat="44.33967" lon="0.72495">
        <ele>191</ele>
        <time>2025-04-17T13:23:03.000Z</time>
      </trkpt>
      <trkpt lat="44.33965" lon="0.72507">
        <ele>190.4</ele>
        <time>2025-04-17T13:23:11.000Z</time>
      </trkpt>
      <trkpt lat="44.33963" lon="0.7252">
        <ele>189.7</ele>
        <time>2025-04-17T13:23:19.000Z</time>
      </trkpt>
      <trkpt lat="44.3396" lon="0.72534">
        <ele>188.9</ele>
        <time>2025-04-17T13:23:29.000Z</time>
      </trkpt>
      <trkpt lat="44.33956" lon="0.72549">
        <ele>188.1</ele>
        <time>2025-04-17T13:23:37.000Z</time>
      </trkpt>
      <trkpt lat="44.33952" lon="0.72561">
        <ele>187.4</ele>
        <time>2025-04-17T13:23:45.000Z</time>
      </trkpt>
      <trkpt lat="44.33951" lon="0.72574">
        <ele>186.8</ele>
        <time>2025-04-17T13:23:53.000Z</time>
      </trkpt>
      <trkpt lat="44.3395" lon="0.72587">
        <ele>186.3</ele>
        <time>2025-04-17T13:24:01.000Z</time>
      </trkpt>
      <trkpt lat="44.33948" lon="0.72599">
        <ele>185.7</ele>
        <time>2025-04-17T13:24:09.000Z</time>
      </trkpt>
      <trkpt lat="44.33945" lon="0.72614">
        <ele>184.9</ele>
        <time>2025-04-17T13:24:19.000Z</time>
      </trkpt>
      <trkpt lat="44.33941" lon="0.72627">
        <ele>184.7</ele>
        <time>2025-04-17T13:24:29.000Z</time>
      </trkpt>
      <trkpt lat="44.33939" lon="0.72638">
        <ele>184.4</ele>
        <time>2025-04-17T13:24:37.000Z</time>
      </trkpt>
      <trkpt lat="44.33943" lon="0.7265">
        <ele>183.7</ele>
        <time>2025-04-17T13:24:49.000Z</time>
      </trkpt>
      <trkpt lat="44.33949" lon="0.72659">
        <ele>183.7</ele>
        <time>2025-04-17T13:25:01.000Z</time>
      </trkpt>
      <trkpt lat="44.33951" lon="0.72673">
        <ele>183.4</ele>
        <time>2025-04-17T13:25:09.000Z</time>
      </trkpt>
      <trkpt lat="44.33951" lon="0.72686">
        <ele>182.7</ele>
        <time>2025-04-17T13:25:23.000Z</time>
      </trkpt>
      <trkpt lat="44.33951" lon="0.72701">
        <ele>181.9</ele>
        <time>2025-04-17T13:25:33.000Z</time>
      </trkpt>
      <trkpt lat="44.33951" lon="0.72715">
        <ele>181.5</ele>
        <time>2025-04-17T13:25:41.000Z</time>
      </trkpt>
      <trkpt lat="44.3395" lon="0.72727">
        <ele>181</ele>
        <time>2025-04-17T13:25:51.000Z</time>
      </trkpt>
      <trkpt lat="44.33949" lon="0.72741">
        <ele>180.6</ele>
        <time>2025-04-17T13:25:59.000Z</time>
      </trkpt>
      <trkpt lat="44.33948" lon="0.72754">
        <ele>180</ele>
        <time>2025-04-17T13:26:07.000Z</time>
      </trkpt>
      <trkpt lat="44.33946" lon="0.72767">
        <ele>179.9</ele>
        <time>2025-04-17T13:26:17.000Z</time>
      </trkpt>
      <trkpt lat="44.33942" lon="0.7278">
        <ele>179.5</ele>
        <time>2025-04-17T13:26:25.000Z</time>
      </trkpt>
      <trkpt lat="44.33941" lon="0.72793">
        <ele>179.3</ele>
        <time>2025-04-17T13:26:33.000Z</time>
      </trkpt>
      <trkpt lat="44.33939" lon="0.72806">
        <ele>178.8</ele>
        <time>2025-04-17T13:26:43.000Z</time>
      </trkpt>
      <trkpt lat="44.33939" lon="0.72819">
        <ele>178.5</ele>
        <time>2025-04-17T13:26:51.000Z</time>
      </trkpt>
      <trkpt lat="44.3394" lon="0.72832">
        <ele>178.4</ele>
        <time>2025-04-17T13:26:59.000Z</time>
      </trkpt>
      <trkpt lat="44.33942" lon="0.72845">
        <ele>177.9</ele>
        <time>2025-04-17T13:27:07.000Z</time>
      </trkpt>
      <trkpt lat="44.33944" lon="0.72857">
        <ele>177.2</ele>
        <time>2025-04-17T13:27:15.000Z</time>
      </trkpt>
      <trkpt lat="44.33946" lon="0.7287">
        <ele>176.8</ele>
        <time>2025-04-17T13:27:23.000Z</time>
      </trkpt>
      <trkpt lat="44.33947" lon="0.72882">
        <ele>176</ele>
        <time>2025-04-17T13:27:31.000Z</time>
      </trkpt>
      <trkpt lat="44.33946" lon="0.72895">
        <ele>174.7</ele>
        <time>2025-04-17T13:27:39.000Z</time>
      </trkpt>
      <trkpt lat="44.33947" lon="0.72907">
        <ele>173.7</ele>
        <time>2025-04-17T13:28:05.000Z</time>
      </trkpt>
      <trkpt lat="44.33951" lon="0.72919">
        <ele>173.3</ele>
        <time>2025-04-17T13:29:51.000Z</time>
      </trkpt>
      <trkpt lat="44.33955" lon="0.72932">
        <ele>173.1</ele>
        <time>2025-04-17T13:30:01.000Z</time>
      </trkpt>
      <trkpt lat="44.33958" lon="0.72944">
        <ele>173.1</ele>
        <time>2025-04-17T13:30:11.000Z</time>
      </trkpt>
      <trkpt lat="44.33963" lon="0.72956">
        <ele>173.3</ele>
        <time>2025-04-17T13:30:21.000Z</time>
      </trkpt>
      <trkpt lat="44.33968" lon="0.72968">
        <ele>173.5</ele>
        <time>2025-04-17T13:30:29.000Z</time>
      </trkpt>
      <trkpt lat="44.33972" lon="0.7298">
        <ele>173.5</ele>
        <time>2025-04-17T13:30:39.000Z</time>
      </trkpt>
      <trkpt lat="44.33977" lon="0.72991">
        <ele>174.6</ele>
        <time>2025-04-17T13:30:47.000Z</time>
      </trkpt>
      <trkpt lat="44.33982" lon="0.73002">
        <ele>175.6</ele>
        <time>2025-04-17T13:30:55.000Z</time>
      </trkpt>
      <trkpt lat="44.33985" lon="0.73014">
        <ele>176.2</ele>
        <time>2025-04-17T13:31:03.000Z</time>
      </trkpt>
      <trkpt lat="44.33987" lon="0.73026">
        <ele>176.6</ele>
        <time>2025-04-17T13:31:45.000Z</time>
      </trkpt>
      <trkpt lat="44.33992" lon="0.73039">
        <ele>177.2</ele>
        <time>2025-04-17T13:32:07.000Z</time>
      </trkpt>
      <trkpt lat="44.33994" lon="0.73051">
        <ele>177.2</ele>
        <time>2025-04-17T13:32:15.000Z</time>
      </trkpt>
      <trkpt lat="44.33996" lon="0.73064">
        <ele>176.8</ele>
        <time>2025-04-17T13:32:25.000Z</time>
      </trkpt>
      <trkpt lat="44.33999" lon="0.73076">
        <ele>176.4</ele>
        <time>2025-04-17T13:32:36.000Z</time>
      </trkpt>
      <trkpt lat="44.34002" lon="0.73088">
        <ele>176.5</ele>
        <time>2025-04-17T13:32:46.000Z</time>
      </trkpt>
      <trkpt lat="44.34001" lon="0.73101">
        <ele>175.9</ele>
        <time>2025-04-17T13:32:56.000Z</time>
      </trkpt>
      <trkpt lat="44.34003" lon="0.73116">
        <ele>175.7</ele>
        <time>2025-04-17T13:33:04.000Z</time>
      </trkpt>
      <trkpt lat="44.34004" lon="0.73129">
        <ele>175.1</ele>
        <time>2025-04-17T13:33:12.000Z</time>
      </trkpt>
      <trkpt lat="44.34006" lon="0.73143">
        <ele>175</ele>
        <time>2025-04-17T13:33:24.000Z</time>
      </trkpt>
      <trkpt lat="44.3401" lon="0.73154">
        <ele>176</ele>
        <time>2025-04-17T13:33:32.000Z</time>
      </trkpt>
      <trkpt lat="44.34011" lon="0.73167">
        <ele>175.5</ele>
        <time>2025-04-17T13:33:40.000Z</time>
      </trkpt>
      <trkpt lat="44.34009" lon="0.73182">
        <ele>173.7</ele>
        <time>2025-04-17T13:33:48.000Z</time>
      </trkpt>
      <trkpt lat="44.34012" lon="0.73194">
        <ele>174.3</ele>
        <time>2025-04-17T13:33:57.000Z</time>
      </trkpt>
      <trkpt lat="44.34012" lon="0.73207">
        <ele>173.5</ele>
        <time>2025-04-17T13:34:07.000Z</time>
      </trkpt>
      <trkpt lat="44.34016" lon="0.73217">
        <ele>174.7</ele>
        <time>2025-04-17T13:34:22.000Z</time>
      </trkpt>
      <trkpt lat="44.34013" lon="0.73233">
        <ele>172.7</ele>
        <time>2025-04-17T13:34:25.000Z</time>
      </trkpt>
      <trkpt lat="44.34009" lon="0.73247">
        <ele>170.3</ele>
        <time>2025-04-17T13:34:34.000Z</time>
      </trkpt>
      <trkpt lat="44.34005" lon="0.7326">
        <ele>168.3</ele>
        <time>2025-04-17T13:34:44.000Z</time>
      </trkpt>
      <trkpt lat="44.34001" lon="0.73272">
        <ele>166.3</ele>
        <time>2025-04-17T13:35:06.000Z</time>
      </trkpt>
      <trkpt lat="44.33997" lon="0.73285">
        <ele>165.3</ele>
        <time>2025-04-17T13:35:14.000Z</time>
      </trkpt>
      <trkpt lat="44.33993" lon="0.73298">
        <ele>164.4</ele>
        <time>2025-04-17T13:35:24.000Z</time>
      </trkpt>
      <trkpt lat="44.3399" lon="0.73312">
        <ele>163.4</ele>
        <time>2025-04-17T13:35:34.000Z</time>
      </trkpt>
      <trkpt lat="44.33991" lon="0.73327">
        <ele>163.6</ele>
        <time>2025-04-17T13:35:42.000Z</time>
      </trkpt>
      <trkpt lat="44.33994" lon="0.73341">
        <ele>163.9</ele>
        <time>2025-04-17T13:35:52.000Z</time>
      </trkpt>
      <trkpt lat="44.33998" lon="0.73353">
        <ele>164</ele>
        <time>2025-04-17T13:36:00.000Z</time>
      </trkpt>
      <trkpt lat="44.33999" lon="0.73366">
        <ele>163.3</ele>
        <time>2025-04-17T13:36:12.000Z</time>
      </trkpt>
      <trkpt lat="44.34001" lon="0.73379">
        <ele>164.1</ele>
        <time>2025-04-17T13:36:26.000Z</time>
      </trkpt>
      <trkpt lat="44.34004" lon="0.73391">
        <ele>165.1</ele>
        <time>2025-04-17T13:36:37.000Z</time>
      </trkpt>
      <trkpt lat="44.34006" lon="0.73404">
        <ele>166.6</ele>
        <time>2025-04-17T13:36:47.000Z</time>
      </trkpt>
      <trkpt lat="44.34009" lon="0.73416">
        <ele>168.1</ele>
        <time>2025-04-17T13:37:10.000Z</time>
      </trkpt>
      <trkpt lat="44.34011" lon="0.73431">
        <ele>169.1</ele>
        <time>2025-04-17T13:38:12.000Z</time>
      </trkpt>
      <trkpt lat="44.34012" lon="0.73445">
        <ele>169.7</ele>
        <time>2025-04-17T13:38:22.000Z</time>
      </trkpt>
      <trkpt lat="44.34013" lon="0.7346">
        <ele>170</ele>
        <time>2025-04-17T13:38:32.000Z</time>
      </trkpt>
      <trkpt lat="44.34013" lon="0.73474">
        <ele>169.4</ele>
        <time>2025-04-17T13:38:42.000Z</time>
      </trkpt>
      <trkpt lat="44.34012" lon="0.73487">
        <ele>168.7</ele>
        <time>2025-04-17T13:38:52.000Z</time>
      </trkpt>
      <trkpt lat="44.34014" lon="0.735">
        <ele>169.1</ele>
        <time>2025-04-17T13:39:02.000Z</time>
      </trkpt>
      <trkpt lat="44.34018" lon="0.73512">
        <ele>170.1</ele>
        <time>2025-04-17T13:39:12.000Z</time>
      </trkpt>
      <trkpt lat="44.34016" lon="0.73525">
        <ele>169.2</ele>
        <time>2025-04-17T13:39:20.000Z</time>
      </trkpt>
      <trkpt lat="44.34013" lon="0.73536">
        <ele>167.1</ele>
        <time>2025-04-17T13:39:28.000Z</time>
      </trkpt>
      <trkpt lat="44.34011" lon="0.7355">
        <ele>165.8</ele>
        <time>2025-04-17T13:39:38.000Z</time>
      </trkpt>
      <trkpt lat="44.3401" lon="0.73566">
        <ele>164.3</ele>
        <time>2025-04-17T13:39:52.000Z</time>
      </trkpt>
      <trkpt lat="44.34007" lon="0.73581">
        <ele>162.3</ele>
        <time>2025-04-17T13:40:02.000Z</time>
      </trkpt>
      <trkpt lat="44.34004" lon="0.73594">
        <ele>160.6</ele>
        <time>2025-04-17T13:40:10.000Z</time>
      </trkpt>
      <trkpt lat="44.34002" lon="0.73607">
        <ele>158.9</ele>
        <time>2025-04-17T13:40:20.000Z</time>
      </trkpt>
      <trkpt lat="44.33999" lon="0.73619">
        <ele>156.8</ele>
        <time>2025-04-17T13:40:30.000Z</time>
      </trkpt>
      <trkpt lat="44.33995" lon="0.73634">
        <ele>154.3</ele>
        <time>2025-04-17T13:40:38.000Z</time>
      </trkpt>
      <trkpt lat="44.33991" lon="0.73647">
        <ele>151.9</ele>
        <time>2025-04-17T13:40:48.000Z</time>
      </trkpt>
      <trkpt lat="44.33989" lon="0.73659">
        <ele>150.2</ele>
        <time>2025-04-17T13:40:56.000Z</time>
      </trkpt>
      <trkpt lat="44.33988" lon="0.73672">
        <ele>149.1</ele>
        <time>2025-04-17T13:41:04.000Z</time>
      </trkpt>
      <trkpt lat="44.33988" lon="0.73685">
        <ele>148.5</ele>
        <time>2025-04-17T13:41:12.000Z</time>
      </trkpt>
      <trkpt lat="44.33989" lon="0.73698">
        <ele>147.6</ele>
        <time>2025-04-17T13:41:22.000Z</time>
      </trkpt>
      <trkpt lat="44.33985" lon="0.73712">
        <ele>145.8</ele>
        <time>2025-04-17T13:41:32.000Z</time>
      </trkpt>
      <trkpt lat="44.33981" lon="0.73724">
        <ele>144.1</ele>
        <time>2025-04-17T13:41:42.000Z</time>
      </trkpt>
      <trkpt lat="44.33975" lon="0.73734">
        <ele>142.5</ele>
        <time>2025-04-17T13:41:52.000Z</time>
      </trkpt>
      <trkpt lat="44.3397" lon="0.73746">
        <ele>141</ele>
        <time>2025-04-17T13:42:02.000Z</time>
      </trkpt>
      <trkpt lat="44.33964" lon="0.73755">
        <ele>139.1</ele>
        <time>2025-04-17T13:42:14.000Z</time>
      </trkpt>
      <trkpt lat="44.33957" lon="0.73763">
        <ele>137.3</ele>
        <time>2025-04-17T13:42:24.000Z</time>
      </trkpt>
      <trkpt lat="44.3395" lon="0.73771">
        <ele>135.9</ele>
        <time>2025-04-17T13:42:32.000Z</time>
      </trkpt>
      <trkpt lat="44.33944" lon="0.73781">
        <ele>135.2</ele>
        <time>2025-04-17T13:42:42.000Z</time>
      </trkpt>
      <trkpt lat="44.33937" lon="0.73791">
        <ele>136</ele>
        <time>2025-04-17T13:42:56.000Z</time>
      </trkpt>
      <trkpt lat="44.33929" lon="0.73789">
        <ele>136</ele>
        <time>2025-04-17T13:46:55.000Z</time>
      </trkpt>
      <trkpt lat="44.33921" lon="0.73781">
        <ele>135.3</ele>
        <time>2025-04-17T13:47:05.000Z</time>
      </trkpt>
      <trkpt lat="44.33912" lon="0.73774">
        <ele>134.8</ele>
        <time>2025-04-17T13:47:21.000Z</time>
      </trkpt>
      <trkpt lat="44.33904" lon="0.73769">
        <ele>134.6</ele>
        <time>2025-04-17T13:47:29.000Z</time>
      </trkpt>
      <trkpt lat="44.33894" lon="0.73769">
        <ele>134.6</ele>
        <time>2025-04-17T13:47:37.000Z</time>
      </trkpt>
      <trkpt lat="44.33885" lon="0.7377">
        <ele>134.7</ele>
        <time>2025-04-17T13:47:45.000Z</time>
      </trkpt>
      <trkpt lat="44.33875" lon="0.73769">
        <ele>134</ele>
        <time>2025-04-17T13:48:15.000Z</time>
      </trkpt>
      <trkpt lat="44.33865" lon="0.73769">
        <ele>133.5</ele>
        <time>2025-04-17T13:48:23.000Z</time>
      </trkpt>
      <trkpt lat="44.33855" lon="0.7377">
        <ele>133.1</ele>
        <time>2025-04-17T13:48:33.000Z</time>
      </trkpt>
      <trkpt lat="44.33845" lon="0.73772">
        <ele>132.5</ele>
        <time>2025-04-17T13:48:43.000Z</time>
      </trkpt>
      <trkpt lat="44.33835" lon="0.73775">
        <ele>132</ele>
        <time>2025-04-17T13:48:51.000Z</time>
      </trkpt>
      <trkpt lat="44.33825" lon="0.73777">
        <ele>131.4</ele>
        <time>2025-04-17T13:48:59.000Z</time>
      </trkpt>
      <trkpt lat="44.33816" lon="0.73778">
        <ele>130.7</ele>
        <time>2025-04-17T13:49:07.000Z</time>
      </trkpt>
      <trkpt lat="44.33812" lon="0.73766">
        <ele>130</ele>
        <time>2025-04-17T13:49:17.000Z</time>
      </trkpt>
      <trkpt lat="44.33811" lon="0.73754">
        <ele>129.5</ele>
        <time>2025-04-17T13:50:23.000Z</time>
      </trkpt>
      <trkpt lat="44.33809" lon="0.73741">
        <ele>129.2</ele>
        <time>2025-04-17T13:50:31.000Z</time>
      </trkpt>
      <trkpt lat="44.33807" lon="0.73727">
        <ele>129.1</ele>
        <time>2025-04-17T13:50:41.000Z</time>
      </trkpt>
      <trkpt lat="44.33808" lon="0.73712">
        <ele>129.8</ele>
        <time>2025-04-17T13:50:49.000Z</time>
      </trkpt>
      <trkpt lat="44.3381" lon="0.73699">
        <ele>130.6</ele>
        <time>2025-04-17T13:50:57.000Z</time>
      </trkpt>
      <trkpt lat="44.33817" lon="0.73693">
        <ele>130.8</ele>
        <time>2025-04-17T13:51:05.000Z</time>
      </trkpt>
      <trkpt lat="44.33825" lon="0.73689">
        <ele>130.9</ele>
        <time>2025-04-17T13:51:15.000Z</time>
      </trkpt>
      <trkpt lat="44.33835" lon="0.73685">
        <ele>131.1</ele>
        <time>2025-04-17T13:51:25.000Z</time>
      </trkpt>
      <trkpt lat="44.33843" lon="0.7368">
        <ele>131.6</ele>
        <time>2025-04-17T13:51:33.000Z</time>
      </trkpt>
      <trkpt lat="44.33851" lon="0.73674">
        <ele>131.9</ele>
        <time>2025-04-17T13:51:41.000Z</time>
      </trkpt>
      <trkpt lat="44.33859" lon="0.73667">
        <ele>132</ele>
        <time>2025-04-17T13:51:51.000Z</time>
      </trkpt>
      <trkpt lat="44.33867" lon="0.73659">
        <ele>132.5</ele>
        <time>2025-04-17T13:52:01.000Z</time>
      </trkpt>
      <trkpt lat="44.33874" lon="0.7365">
        <ele>132.9</ele>
        <time>2025-04-17T13:52:09.000Z</time>
      </trkpt>
      <trkpt lat="44.33879" lon="0.73638">
        <ele>133.4</ele>
        <time>2025-04-17T13:52:17.000Z</time>
      </trkpt>
      <trkpt lat="44.33884" lon="0.73626">
        <ele>133.9</ele>
        <time>2025-04-17T13:52:27.000Z</time>
      </trkpt>
      <trkpt lat="44.33888" lon="0.73613">
        <ele>134.1</ele>
        <time>2025-04-17T13:53:35.000Z</time>
      </trkpt>
      <trkpt lat="44.3389" lon="0.73601">
        <ele>134.4</ele>
        <time>2025-04-17T13:53:45.000Z</time>
      </trkpt>
      <trkpt lat="44.33894" lon="0.73587">
        <ele>135.2</ele>
        <time>2025-04-17T13:53:55.000Z</time>
      </trkpt>
      <trkpt lat="44.33896" lon="0.73574">
        <ele>136.1</ele>
        <time>2025-04-17T13:54:05.000Z</time>
      </trkpt>
      <trkpt lat="44.33892" lon="0.73563">
        <ele>136.6</ele>
        <time>2025-04-17T13:54:15.000Z</time>
      </trkpt>
      <trkpt lat="44.33884" lon="0.73556">
        <ele>137.9</ele>
        <time>2025-04-17T13:54:25.000Z</time>
      </trkpt>
      <trkpt lat="44.33875" lon="0.7355">
        <ele>140</ele>
        <time>2025-04-17T13:54:37.000Z</time>
      </trkpt>
      <trkpt lat="44.33868" lon="0.73543">
        <ele>142.1</ele>
        <time>2025-04-17T13:54:55.000Z</time>
      </trkpt>
      <trkpt lat="44.33863" lon="0.73534">
        <ele>144</ele>
        <time>2025-04-17T13:55:09.000Z</time>
      </trkpt>
      <trkpt lat="44.33865" lon="0.73522">
        <ele>144.6</ele>
        <time>2025-04-17T13:55:25.000Z</time>
      </trkpt>
      <trkpt lat="44.33869" lon="0.7351">
        <ele>144.5</ele>
        <time>2025-04-17T13:55:37.000Z</time>
      </trkpt>
      <trkpt lat="44.33873" lon="0.73497">
        <ele>144.7</ele>
        <time>2025-04-17T13:55:47.000Z</time>
      </trkpt>
      <trkpt lat="44.33877" lon="0.73483">
        <ele>145.1</ele>
        <time>2025-04-17T13:55:57.000Z</time>
      </trkpt>
      <trkpt lat="44.3388" lon="0.7347">
        <ele>145.5</ele>
        <time>2025-04-17T13:56:07.000Z</time>
      </trkpt>
      <trkpt lat="44.33884" lon="0.73457">
        <ele>145.3</ele>
        <time>2025-04-17T13:56:17.000Z</time>
      </trkpt>
      <trkpt lat="44.33888" lon="0.73445">
        <ele>145.2</ele>
        <time>2025-04-17T13:56:45.000Z</time>
      </trkpt>
      <trkpt lat="44.33892" lon="0.73435">
        <ele>145.5</ele>
        <time>2025-04-17T13:56:55.000Z</time>
      </trkpt>
      <trkpt lat="44.33891" lon="0.73422">
        <ele>146.4</ele>
        <time>2025-04-17T13:57:07.000Z</time>
      </trkpt>
      <trkpt lat="44.33891" lon="0.73409">
        <ele>147</ele>
        <time>2025-04-17T13:57:23.000Z</time>
      </trkpt>
      <trkpt lat="44.33889" lon="0.73398">
        <ele>147.7</ele>
        <time>2025-04-17T13:57:54.000Z</time>
      </trkpt>
      <trkpt lat="44.33887" lon="0.73387">
        <ele>148.5</ele>
        <time>2025-04-17T13:58:47.000Z</time>
      </trkpt>
      <trkpt lat="44.3388" lon="0.73379">
        <ele>150.8</ele>
        <time>2025-04-17T13:59:29.000Z</time>
      </trkpt>
      <trkpt lat="44.33871" lon="0.73371">
        <ele>153.5</ele>
        <time>2025-04-17T13:59:39.000Z</time>
      </trkpt>
      <trkpt lat="44.33863" lon="0.73364">
        <ele>156.3</ele>
        <time>2025-04-17T13:59:51.000Z</time>
      </trkpt>
      <trkpt lat="44.33854" lon="0.73362">
        <ele>159.2</ele>
        <time>2025-04-17T14:00:13.000Z</time>
      </trkpt>
      <trkpt lat="44.33846" lon="0.73365">
        <ele>161.6</ele>
        <time>2025-04-17T14:00:27.000Z</time>
      </trkpt>
      <trkpt lat="44.33844" lon="0.73376">
        <ele>161.6</ele>
        <time>2025-04-17T14:01:21.000Z</time>
      </trkpt>
      <trkpt lat="44.33841" lon="0.73388">
        <ele>161.5</ele>
        <time>2025-04-17T14:01:29.000Z</time>
      </trkpt>
      <trkpt lat="44.33841" lon="0.73401">
        <ele>161.2</ele>
        <time>2025-04-17T14:02:20.000Z</time>
      </trkpt>
      <trkpt lat="44.33838" lon="0.73413">
        <ele>161.7</ele>
        <time>2025-04-17T14:02:30.000Z</time>
      </trkpt>
      <trkpt lat="44.33834" lon="0.73426">
        <ele>162.1</ele>
        <time>2025-04-17T14:02:38.000Z</time>
      </trkpt>
      <trkpt lat="44.33831" lon="0.73438">
        <ele>162.5</ele>
        <time>2025-04-17T14:02:46.000Z</time>
      </trkpt>
      <trkpt lat="44.33826" lon="0.7345">
        <ele>163.4</ele>
        <time>2025-04-17T14:02:56.000Z</time>
      </trkpt>
      <trkpt lat="44.3382" lon="0.73461">
        <ele>164.1</ele>
        <time>2025-04-17T14:03:02.000Z</time>
      </trkpt>
      <trkpt lat="44.33813" lon="0.73471">
        <ele>165.4</ele>
        <time>2025-04-17T14:03:10.000Z</time>
      </trkpt>
      <trkpt lat="44.33806" lon="0.73479">
        <ele>166.9</ele>
        <time>2025-04-17T14:03:18.000Z</time>
      </trkpt>
      <trkpt lat="44.33798" lon="0.73486">
        <ele>168.3</ele>
        <time>2025-04-17T14:03:26.000Z</time>
      </trkpt>
      <trkpt lat="44.3379" lon="0.73494">
        <ele>169.8</ele>
        <time>2025-04-17T14:03:36.000Z</time>
      </trkpt>
      <trkpt lat="44.33781" lon="0.73499">
        <ele>171.3</ele>
        <time>2025-04-17T14:03:44.000Z</time>
      </trkpt>
      <trkpt lat="44.33772" lon="0.73506">
        <ele>171</ele>
        <time>2025-04-17T14:03:54.000Z</time>
      </trkpt>
      <trkpt lat="44.33763" lon="0.73511">
        <ele>170.5</ele>
        <time>2025-04-17T14:04:04.000Z</time>
      </trkpt>
      <trkpt lat="44.33754" lon="0.73511">
        <ele>171.6</ele>
        <time>2025-04-17T14:04:16.000Z</time>
      </trkpt>
      <trkpt lat="44.33745" lon="0.73506">
        <ele>172.6</ele>
        <time>2025-04-17T14:04:32.000Z</time>
      </trkpt>
      <trkpt lat="44.3374" lon="0.73495">
        <ele>174.3</ele>
        <time>2025-04-17T14:04:44.000Z</time>
      </trkpt>
      <trkpt lat="44.33737" lon="0.73484">
        <ele>176.6</ele>
        <time>2025-04-17T14:04:58.000Z</time>
      </trkpt>
      <trkpt lat="44.33737" lon="0.73471">
        <ele>179.3</ele>
        <time>2025-04-17T14:05:14.000Z</time>
      </trkpt>
      <trkpt lat="44.33735" lon="0.73459">
        <ele>181.1</ele>
        <time>2025-04-17T14:05:28.000Z</time>
      </trkpt>
      <trkpt lat="44.33732" lon="0.73445">
        <ele>183</ele>
        <time>2025-04-17T14:05:46.000Z</time>
      </trkpt>
      <trkpt lat="44.33728" lon="0.73433">
        <ele>184</ele>
        <time>2025-04-17T14:05:58.000Z</time>
      </trkpt>
      <trkpt lat="44.33723" lon="0.73422">
        <ele>185.3</ele>
        <time>2025-04-17T14:06:08.000Z</time>
      </trkpt>
      <trkpt lat="44.33717" lon="0.73412">
        <ele>185.1</ele>
        <time>2025-04-17T14:06:40.000Z</time>
      </trkpt>
      <trkpt lat="44.33711" lon="0.73401">
        <ele>185.3</ele>
        <time>2025-04-17T14:09:14.000Z</time>
      </trkpt>
      <trkpt lat="44.33708" lon="0.73388">
        <ele>186.9</ele>
        <time>2025-04-17T14:09:22.000Z</time>
      </trkpt>
      <trkpt lat="44.33703" lon="0.73376">
        <ele>187.7</ele>
        <time>2025-04-17T14:09:32.000Z</time>
      </trkpt>
      <trkpt lat="44.33696" lon="0.73365">
        <ele>188.4</ele>
        <time>2025-04-17T14:09:44.000Z</time>
      </trkpt>
      <trkpt lat="44.3369" lon="0.73352">
        <ele>188.1</ele>
        <time>2025-04-17T14:09:54.000Z</time>
      </trkpt>
      <trkpt lat="44.33686" lon="0.73341">
        <ele>187.8</ele>
        <time>2025-04-17T14:10:02.000Z</time>
      </trkpt>
      <trkpt lat="44.33681" lon="0.73328">
        <ele>187.4</ele>
        <time>2025-04-17T14:10:10.000Z</time>
      </trkpt>
      <trkpt lat="44.33675" lon="0.73315">
        <ele>187</ele>
        <time>2025-04-17T14:10:18.000Z</time>
      </trkpt>
      <trkpt lat="44.33672" lon="0.73301">
        <ele>187.5</ele>
        <time>2025-04-17T14:10:28.000Z</time>
      </trkpt>
      <trkpt lat="44.33669" lon="0.73288">
        <ele>188.2</ele>
        <time>2025-04-17T14:10:36.000Z</time>
      </trkpt>
      <trkpt lat="44.33666" lon="0.73275">
        <ele>189</ele>
        <time>2025-04-17T14:10:44.000Z</time>
      </trkpt>
      <trkpt lat="44.33663" lon="0.73262">
        <ele>188.5</ele>
        <time>2025-04-17T14:10:54.000Z</time>
      </trkpt>
      <trkpt lat="44.3366" lon="0.7325">
        <ele>188</ele>
        <time>2025-04-17T14:11:02.000Z</time>
      </trkpt>
      <trkpt lat="44.33656" lon="0.73237">
        <ele>188</ele>
        <time>2025-04-17T14:11:10.000Z</time>
      </trkpt>
      <trkpt lat="44.33653" lon="0.73225">
        <ele>188.2</ele>
        <time>2025-04-17T14:11:20.000Z</time>
      </trkpt>
      <trkpt lat="44.33649" lon="0.73213">
        <ele>188.4</ele>
        <time>2025-04-17T14:11:28.000Z</time>
      </trkpt>
      <trkpt lat="44.33646" lon="0.73202">
        <ele>188.5</ele>
        <time>2025-04-17T14:11:36.000Z</time>
      </trkpt>
      <trkpt lat="44.33641" lon="0.73189">
        <ele>188.6</ele>
        <time>2025-04-17T14:11:46.000Z</time>
      </trkpt>
      <trkpt lat="44.33635" lon="0.73179">
        <ele>188.4</ele>
        <time>2025-04-17T14:11:54.000Z</time>
      </trkpt>
      <trkpt lat="44.33631" lon="0.73167">
        <ele>188.5</ele>
        <time>2025-04-17T14:12:02.000Z</time>
      </trkpt>
      <trkpt lat="44.33627" lon="0.73156">
        <ele>188.6</ele>
        <time>2025-04-17T14:12:10.000Z</time>
      </trkpt>
      <trkpt lat="44.33624" lon="0.73144">
        <ele>189</ele>
        <time>2025-04-17T14:12:20.000Z</time>
      </trkpt>
      <trkpt lat="44.33619" lon="0.73133">
        <ele>189.4</ele>
        <time>2025-04-17T14:12:28.000Z</time>
      </trkpt>
      <trkpt lat="44.33613" lon="0.73122">
        <ele>190</ele>
        <time>2025-04-17T14:12:36.000Z</time>
      </trkpt>
      <trkpt lat="44.33609" lon="0.7311">
        <ele>190.6</ele>
        <time>2025-04-17T14:12:44.000Z</time>
      </trkpt>
      <trkpt lat="44.33606" lon="0.73097">
        <ele>190.9</ele>
        <time>2025-04-17T14:12:52.000Z</time>
      </trkpt>
      <trkpt lat="44.33603" lon="0.73085">
        <ele>191.4</ele>
        <time>2025-04-17T14:13:00.000Z</time>
      </trkpt>
      <trkpt lat="44.33598" lon="0.73075">
        <ele>191.3</ele>
        <time>2025-04-17T14:13:08.000Z</time>
      </trkpt>
      <trkpt lat="44.33595" lon="0.73064">
        <ele>191.6</ele>
        <time>2025-04-17T14:13:18.000Z</time>
      </trkpt>
      <trkpt lat="44.33591" lon="0.73052">
        <ele>192.2</ele>
        <time>2025-04-17T14:13:28.000Z</time>
      </trkpt>
      <trkpt lat="44.33586" lon="0.73041">
        <ele>192.8</ele>
        <time>2025-04-17T14:13:40.000Z</time>
      </trkpt>
      <trkpt lat="44.33585" lon="0.73028">
        <ele>194</ele>
        <time>2025-04-17T14:13:46.000Z</time>
      </trkpt>
      <trkpt lat="44.33583" lon="0.73015">
        <ele>194.9</ele>
        <time>2025-04-17T14:13:54.000Z</time>
      </trkpt>
      <trkpt lat="44.3358" lon="0.73003">
        <ele>195.5</ele>
        <time>2025-04-17T14:14:01.000Z</time>
      </trkpt>
      <trkpt lat="44.33576" lon="0.7299">
        <ele>196</ele>
        <time>2025-04-17T14:14:10.000Z</time>
      </trkpt>
      <trkpt lat="44.33572" lon="0.72978">
        <ele>196.6</ele>
        <time>2025-04-17T14:14:18.000Z</time>
      </trkpt>
      <trkpt lat="44.3357" lon="0.72966">
        <ele>197.4</ele>
        <time>2025-04-17T14:14:26.000Z</time>
      </trkpt>
      <trkpt lat="44.33567" lon="0.72954">
        <ele>198.2</ele>
        <time>2025-04-17T14:14:35.000Z</time>
      </trkpt>
      <trkpt lat="44.33564" lon="0.72942">
        <ele>198.7</ele>
        <time>2025-04-17T14:14:45.000Z</time>
      </trkpt>
      <trkpt lat="44.33561" lon="0.7293">
        <ele>198.9</ele>
        <time>2025-04-17T14:14:53.000Z</time>
      </trkpt>
      <trkpt lat="44.33556" lon="0.72918">
        <ele>199</ele>
        <time>2025-04-17T14:15:03.000Z</time>
      </trkpt>
      <trkpt lat="44.33551" lon="0.72906">
        <ele>199.1</ele>
        <time>2025-04-17T14:15:13.000Z</time>
      </trkpt>
      <trkpt lat="44.3355" lon="0.72892">
        <ele>199.5</ele>
        <time>2025-04-17T14:15:23.000Z</time>
      </trkpt>
      <trkpt lat="44.33553" lon="0.7288">
        <ele>200.1</ele>
        <time>2025-04-17T14:16:29.000Z</time>
      </trkpt>
      <trkpt lat="44.33554" lon="0.72866">
        <ele>200.7</ele>
        <time>2025-04-17T14:17:07.000Z</time>
      </trkpt>
      <trkpt lat="44.33554" lon="0.72851">
        <ele>200.9</ele>
        <time>2025-04-17T14:17:17.000Z</time>
      </trkpt>
      <trkpt lat="44.33555" lon="0.72837">
        <ele>201</ele>
        <time>2025-04-17T14:17:25.000Z</time>
      </trkpt>
      <trkpt lat="44.33557" lon="0.72824">
        <ele>201.2</ele>
        <time>2025-04-17T14:17:33.000Z</time>
      </trkpt>
      <trkpt lat="44.3356" lon="0.72811">
        <ele>201.5</ele>
        <time>2025-04-17T14:17:41.000Z</time>
      </trkpt>
      <trkpt lat="44.33564" lon="0.72799">
        <ele>201.8</ele>
        <time>2025-04-17T14:17:49.000Z</time>
      </trkpt>
      <trkpt lat="44.33568" lon="0.72786">
        <ele>201.9</ele>
        <time>2025-04-17T14:17:57.000Z</time>
      </trkpt>
      <trkpt lat="44.33569" lon="0.72774">
        <ele>201.8</ele>
        <time>2025-04-17T14:18:05.000Z</time>
      </trkpt>
      <trkpt lat="44.33571" lon="0.7276">
        <ele>201.6</ele>
        <time>2025-04-17T14:18:25.000Z</time>
      </trkpt>
      <trkpt lat="44.33575" lon="0.72748">
        <ele>201.7</ele>
        <time>2025-04-17T14:18:33.000Z</time>
      </trkpt>
      <trkpt lat="44.33577" lon="0.72735">
        <ele>201.5</ele>
        <time>2025-04-17T14:18:43.000Z</time>
      </trkpt>
      <trkpt lat="44.33578" lon="0.72722">
        <ele>201.2</ele>
        <time>2025-04-17T14:18:51.000Z</time>
      </trkpt>
      <trkpt lat="44.33576" lon="0.7271">
        <ele>200.9</ele>
        <time>2025-04-17T14:18:57.000Z</time>
      </trkpt>
      <trkpt lat="44.33574" lon="0.72697">
        <ele>200.7</ele>
        <time>2025-04-17T14:19:07.000Z</time>
      </trkpt>
      <trkpt lat="44.33573" lon="0.72685">
        <ele>200.6</ele>
        <time>2025-04-17T14:19:15.000Z</time>
      </trkpt>
      <trkpt lat="44.33572" lon="0.72671">
        <ele>200.7</ele>
        <time>2025-04-17T14:19:23.000Z</time>
      </trkpt>
      <trkpt lat="44.3357" lon="0.72657">
        <ele>200.9</ele>
        <time>2025-04-17T14:19:31.000Z</time>
      </trkpt>
      <trkpt lat="44.33569" lon="0.72644">
        <ele>201.3</ele>
        <time>2025-04-17T14:19:39.000Z</time>
      </trkpt>
      <trkpt lat="44.33569" lon="0.7263">
        <ele>201.7</ele>
        <time>2025-04-17T14:19:47.000Z</time>
      </trkpt>
      <trkpt lat="44.33566" lon="0.72617">
        <ele>201.6</ele>
        <time>2025-04-17T14:19:55.000Z</time>
      </trkpt>
      <trkpt lat="44.33563" lon="0.72603">
        <ele>201.8</ele>
        <time>2025-04-17T14:20:03.000Z</time>
      </trkpt>
      <trkpt lat="44.33562" lon="0.72591">
        <ele>202.2</ele>
        <time>2025-04-17T14:20:11.000Z</time>
      </trkpt>
      <trkpt lat="44.3356" lon="0.72579">
        <ele>202.6</ele>
        <time>2025-04-17T14:20:19.000Z</time>
      </trkpt>
      <trkpt lat="44.3356" lon="0.72566">
        <ele>203.5</ele>
        <time>2025-04-17T14:20:27.000Z</time>
      </trkpt>
      <trkpt lat="44.33558" lon="0.72554">
        <ele>204.2</ele>
        <time>2025-04-17T14:20:35.000Z</time>
      </trkpt>
      <trkpt lat="44.33555" lon="0.72542">
        <ele>204.4</ele>
        <time>2025-04-17T14:20:43.000Z</time>
      </trkpt>
      <trkpt lat="44.33553" lon="0.72529">
        <ele>204.7</ele>
        <time>2025-04-17T14:20:51.000Z</time>
      </trkpt>
      <trkpt lat="44.3355" lon="0.72517">
        <ele>204.9</ele>
        <time>2025-04-17T14:20:59.000Z</time>
      </trkpt>
      <trkpt lat="44.33549" lon="0.72503">
        <ele>205.4</ele>
        <time>2025-04-17T14:21:07.000Z</time>
      </trkpt>
      <trkpt lat="44.33549" lon="0.7249">
        <ele>205.9</ele>
        <time>2025-04-17T14:21:15.000Z</time>
      </trkpt>
      <trkpt lat="44.33552" lon="0.72477">
        <ele>206.6</ele>
        <time>2025-04-17T14:21:25.000Z</time>
      </trkpt>
      <trkpt lat="44.33551" lon="0.72464">
        <ele>207</ele>
        <time>2025-04-17T14:21:33.000Z</time>
      </trkpt>
      <trkpt lat="44.3355" lon="0.72451">
        <ele>207.6</ele>
        <time>2025-04-17T14:21:41.000Z</time>
      </trkpt>
      <trkpt lat="44.33549" lon="0.72438">
        <ele>208</ele>
        <time>2025-04-17T14:21:49.000Z</time>
      </trkpt>
      <trkpt lat="44.33548" lon="0.72425">
        <ele>208.4</ele>
        <time>2025-04-17T14:21:57.000Z</time>
      </trkpt>
      <trkpt lat="44.33549" lon="0.72413">
        <ele>208.9</ele>
        <time>2025-04-17T14:22:05.000Z</time>
      </trkpt>
      <trkpt lat="44.33551" lon="0.724">
        <ele>209.4</ele>
        <time>2025-04-17T14:22:13.000Z</time>
      </trkpt>
      <trkpt lat="44.33553" lon="0.72387">
        <ele>209.9</ele>
        <time>2025-04-17T14:22:21.000Z</time>
      </trkpt>
      <trkpt lat="44.33552" lon="0.72374">
        <ele>210.3</ele>
        <time>2025-04-17T14:22:29.000Z</time>
      </trkpt>
      <trkpt lat="44.33551" lon="0.72361">
        <ele>210.7</ele>
        <time>2025-04-17T14:22:37.000Z</time>
      </trkpt>
      <trkpt lat="44.33552" lon="0.72347">
        <ele>210.7</ele>
        <time>2025-04-17T14:22:47.000Z</time>
      </trkpt>
      <trkpt lat="44.33551" lon="0.72335">
        <ele>210.7</ele>
        <time>2025-04-17T14:22:55.000Z</time>
      </trkpt>
      <trkpt lat="44.33551" lon="0.72322">
        <ele>210.7</ele>
        <time>2025-04-17T14:23:03.000Z</time>
      </trkpt>
      <trkpt lat="44.33551" lon="0.72309">
        <ele>210.7</ele>
        <time>2025-04-17T14:23:11.000Z</time>
      </trkpt>
      <trkpt lat="44.33552" lon="0.72294">
        <ele>210.7</ele>
        <time>2025-04-17T14:23:21.000Z</time>
      </trkpt>
      <trkpt lat="44.33551" lon="0.72281">
        <ele>210.6</ele>
        <time>2025-04-17T14:23:49.000Z</time>
      </trkpt>
      <trkpt lat="44.33551" lon="0.72268">
        <ele>211</ele>
        <time>2025-04-17T14:23:55.000Z</time>
      </trkpt>
      <trkpt lat="44.33551" lon="0.72254">
        <ele>211.6</ele>
        <time>2025-04-17T14:24:03.000Z</time>
      </trkpt>
      <trkpt lat="44.33553" lon="0.72241">
        <ele>212.1</ele>
        <time>2025-04-17T14:24:11.000Z</time>
      </trkpt>
      <trkpt lat="44.33553" lon="0.72227">
        <ele>212.6</ele>
        <time>2025-04-17T14:24:19.000Z</time>
      </trkpt>
      <trkpt lat="44.33553" lon="0.72212">
        <ele>213.2</ele>
        <time>2025-04-17T14:24:27.000Z</time>
      </trkpt>
      <trkpt lat="44.33553" lon="0.72197">
        <ele>213.8</ele>
        <time>2025-04-17T14:24:35.000Z</time>
      </trkpt>
      <trkpt lat="44.33553" lon="0.72182">
        <ele>213.9</ele>
        <time>2025-04-17T14:24:43.000Z</time>
      </trkpt>
      <trkpt lat="44.33552" lon="0.7217">
        <ele>213.9</ele>
        <time>2025-04-17T14:24:49.000Z</time>
      </trkpt>
      <trkpt lat="44.33552" lon="0.72157">
        <ele>213.2</ele>
        <time>2025-04-17T14:24:57.000Z</time>
      </trkpt>
      <trkpt lat="44.33552" lon="0.72145">
        <ele>212.4</ele>
        <time>2025-04-17T14:25:05.000Z</time>
      </trkpt>
      <trkpt lat="44.33552" lon="0.72132">
        <ele>212</ele>
        <time>2025-04-17T14:25:13.000Z</time>
      </trkpt>
      <trkpt lat="44.33552" lon="0.72118">
        <ele>212</ele>
        <time>2025-04-17T14:25:21.000Z</time>
      </trkpt>
      <trkpt lat="44.33552" lon="0.72104">
        <ele>212</ele>
        <time>2025-04-17T14:25:29.000Z</time>
      </trkpt>
      <trkpt lat="44.33554" lon="0.72091">
        <ele>212</ele>
        <time>2025-04-17T14:25:37.000Z</time>
      </trkpt>
      <trkpt lat="44.33555" lon="0.72079">
        <ele>212.2</ele>
        <time>2025-04-17T14:25:45.000Z</time>
      </trkpt>
      <trkpt lat="44.33556" lon="0.72066">
        <ele>212.6</ele>
        <time>2025-04-17T14:25:53.000Z</time>
      </trkpt>
      <trkpt lat="44.33557" lon="0.72053">
        <ele>213</ele>
        <time>2025-04-17T14:26:01.000Z</time>
      </trkpt>
      <trkpt lat="44.3356" lon="0.72041">
        <ele>213.1</ele>
        <time>2025-04-17T14:26:09.000Z</time>
      </trkpt>
      <trkpt lat="44.33565" lon="0.72032">
        <ele>213.3</ele>
        <time>2025-04-17T14:26:51.000Z</time>
      </trkpt>
      <trkpt lat="44.33562" lon="0.72021">
        <ele>213.2</ele>
        <time>2025-04-17T14:28:07.000Z</time>
      </trkpt>
      <trkpt lat="44.33557" lon="0.72009">
        <ele>213.1</ele>
        <time>2025-04-17T14:28:15.000Z</time>
      </trkpt>
      <trkpt lat="44.33553" lon="0.71996">
        <ele>212.9</ele>
        <time>2025-04-17T14:28:23.000Z</time>
      </trkpt>
      <trkpt lat="44.33553" lon="0.71981">
        <ele>212.9</ele>
        <time>2025-04-17T14:28:31.000Z</time>
      </trkpt>
      <trkpt lat="44.33553" lon="0.71967">
        <ele>212.9</ele>
        <time>2025-04-17T14:28:39.000Z</time>
      </trkpt>
      <trkpt lat="44.33553" lon="0.71954">
        <ele>212.9</ele>
        <time>2025-04-17T14:28:47.000Z</time>
      </trkpt>
      <trkpt lat="44.33555" lon="0.71939">
        <ele>213</ele>
        <time>2025-04-17T14:28:55.000Z</time>
      </trkpt>
      <trkpt lat="44.33555" lon="0.71926">
        <ele>213</ele>
        <time>2025-04-17T14:29:03.000Z</time>
      </trkpt>
      <trkpt lat="44.33554" lon="0.71913">
        <ele>213</ele>
        <time>2025-04-17T14:29:11.000Z</time>
      </trkpt>
      <trkpt lat="44.33553" lon="0.71899">
        <ele>212.9</ele>
        <time>2025-04-17T14:29:19.000Z</time>
      </trkpt>
      <trkpt lat="44.33554" lon="0.71885">
        <ele>212.9</ele>
        <time>2025-04-17T14:29:29.000Z</time>
      </trkpt>
      <trkpt lat="44.33552" lon="0.71873">
        <ele>212.9</ele>
        <time>2025-04-17T14:29:37.000Z</time>
      </trkpt>
      <trkpt lat="44.33549" lon="0.71862">
        <ele>212.7</ele>
        <time>2025-04-17T14:29:45.000Z</time>
      </trkpt>
      <trkpt lat="44.33543" lon="0.71852">
        <ele>212.6</ele>
        <time>2025-04-17T14:29:55.000Z</time>
      </trkpt>
      <trkpt lat="44.33535" lon="0.7185">
        <ele>212.3</ele>
        <time>2025-04-17T14:30:13.000Z</time>
      </trkpt>
      <trkpt lat="44.33526" lon="0.71849">
        <ele>211.9</ele>
        <time>2025-04-17T14:30:19.000Z</time>
      </trkpt>
      <trkpt lat="44.33518" lon="0.71846">
        <ele>211.5</ele>
        <time>2025-04-17T14:30:25.000Z</time>
      </trkpt>
      <trkpt lat="44.3351" lon="0.71849">
        <ele>211.1</ele>
        <time>2025-04-17T14:30:33.000Z</time>
      </trkpt>
      <trkpt lat="44.335" lon="0.71854">
        <ele>210.7</ele>
        <time>2025-04-17T14:30:41.000Z</time>
      </trkpt>
      <trkpt lat="44.3349" lon="0.71857">
        <ele>210.2</ele>
        <time>2025-04-17T14:30:49.000Z</time>
      </trkpt>
      <trkpt lat="44.3348" lon="0.71857">
        <ele>209.5</ele>
        <time>2025-04-17T14:30:57.000Z</time>
      </trkpt>
      <trkpt lat="44.3347" lon="0.71854">
        <ele>208.9</ele>
        <time>2025-04-17T14:31:05.000Z</time>
      </trkpt>
      <trkpt lat="44.3346" lon="0.71854">
        <ele>208.2</ele>
        <time>2025-04-17T14:31:13.000Z</time>
      </trkpt>
      <trkpt lat="44.3345" lon="0.71854">
        <ele>207.6</ele>
        <time>2025-04-17T14:31:21.000Z</time>
      </trkpt>
      <trkpt lat="44.3344" lon="0.71856">
        <ele>206.9</ele>
        <time>2025-04-17T14:31:29.000Z</time>
      </trkpt>
      <trkpt lat="44.33431" lon="0.71857">
        <ele>206.1</ele>
        <time>2025-04-17T14:31:37.000Z</time>
      </trkpt>
      <trkpt lat="44.33422" lon="0.71858">
        <ele>205.4</ele>
        <time>2025-04-17T14:31:45.000Z</time>
      </trkpt>
      <trkpt lat="44.33412" lon="0.71857">
        <ele>204.7</ele>
        <time>2025-04-17T14:31:53.000Z</time>
      </trkpt>
      <trkpt lat="44.33403" lon="0.71853">
        <ele>204.2</ele>
        <time>2025-04-17T14:32:01.000Z</time>
      </trkpt>
      <trkpt lat="44.33398" lon="0.71841">
        <ele>204.1</ele>
        <time>2025-04-17T14:32:11.000Z</time>
      </trkpt>
      <trkpt lat="44.33395" lon="0.71828">
        <ele>204.5</ele>
        <time>2025-04-17T14:32:19.000Z</time>
      </trkpt>
      <trkpt lat="44.33393" lon="0.71814">
        <ele>204.9</ele>
        <time>2025-04-17T14:32:27.000Z</time>
      </trkpt>
      <trkpt lat="44.33391" lon="0.718">
        <ele>205.3</ele>
        <time>2025-04-17T14:32:37.000Z</time>
      </trkpt>
      <trkpt lat="44.33389" lon="0.71785">
        <ele>205.8</ele>
        <time>2025-04-17T14:32:45.000Z</time>
      </trkpt>
      <trkpt lat="44.33386" lon="0.71771">
        <ele>205.8</ele>
        <time>2025-04-17T14:32:53.000Z</time>
      </trkpt>
      <trkpt lat="44.33385" lon="0.71757">
        <ele>205.8</ele>
        <time>2025-04-17T14:33:03.000Z</time>
      </trkpt>
      <trkpt lat="44.33383" lon="0.71745">
        <ele>206</ele>
        <time>2025-04-17T14:33:11.000Z</time>
      </trkpt>
      <trkpt lat="44.33383" lon="0.71731">
        <ele>206.5</ele>
        <time>2025-04-17T14:33:19.000Z</time>
      </trkpt>
      <trkpt lat="44.33381" lon="0.71719">
        <ele>206.7</ele>
        <time>2025-04-17T14:33:27.000Z</time>
      </trkpt>
      <trkpt lat="44.33379" lon="0.71705">
        <ele>206.9</ele>
        <time>2025-04-17T14:33:35.000Z</time>
      </trkpt>
      <trkpt lat="44.33376" lon="0.71692">
        <ele>207.1</ele>
        <time>2025-04-17T14:33:43.000Z</time>
      </trkpt>
      <trkpt lat="44.33373" lon="0.7168">
        <ele>207.2</ele>
        <time>2025-04-17T14:33:51.000Z</time>
      </trkpt>
      <trkpt lat="44.33371" lon="0.71668">
        <ele>207.3</ele>
        <time>2025-04-17T14:33:59.000Z</time>
      </trkpt>
      <trkpt lat="44.33368" lon="0.71656">
        <ele>207.9</ele>
        <time>2025-04-17T14:34:07.000Z</time>
      </trkpt>
      <trkpt lat="44.33363" lon="0.71647">
        <ele>208.4</ele>
        <time>2025-04-17T14:34:15.000Z</time>
      </trkpt>
      <trkpt lat="44.33355" lon="0.71648">
        <ele>208.3</ele>
        <time>2025-04-17T14:34:23.000Z</time>
      </trkpt>
      <trkpt lat="44.33347" lon="0.71653">
        <ele>208</ele>
        <time>2025-04-17T14:34:33.000Z</time>
      </trkpt>
      <trkpt lat="44.33343" lon="0.71664">
        <ele>207.7</ele>
        <time>2025-04-17T14:34:47.000Z</time>
      </trkpt>
      <trkpt lat="44.33337" lon="0.71674">
        <ele>207.4</ele>
        <time>2025-04-17T14:36:54.000Z</time>
      </trkpt>
      <trkpt lat="44.33333" lon="0.71684">
        <ele>206.7</ele>
        <time>2025-04-17T14:38:04.000Z</time>
      </trkpt>
      <trkpt lat="44.33338" lon="0.71682">
        <ele>206.9</ele>
        <time>2025-04-17T14:38:14.000Z</time>
      </trkpt>
      <trkpt lat="44.3334" lon="0.71702">
        <ele>206</ele>
        <time>2025-04-17T14:38:49.000Z</time>
      </trkpt>
      <trkpt lat="44.33337" lon="0.71712">
        <ele>205.5</ele>
        <time>2025-04-17T14:38:59.000Z</time>
      </trkpt>
      <trkpt lat="44.33337" lon="0.71692">
        <ele>206.3</ele>
        <time>2025-04-17T14:39:13.000Z</time>
      </trkpt>
      <trkpt lat="44.33338" lon="0.71685">
        <ele>206.7</ele>
        <time>2025-04-17T14:39:25.000Z</time>
      </trkpt>
      <trkpt lat="44.33335" lon="0.71713">
        <ele>205.4</ele>
        <time>2025-04-17T14:39:37.000Z</time>
      </trkpt>
      <trkpt lat="44.33333" lon="0.71706">
        <ele>205.6</ele>
        <time>2025-04-17T14:40:25.000Z</time>
      </trkpt>
      <trkpt lat="44.33336" lon="0.71685">
        <ele>206.7</ele>
        <time>2025-04-17T14:40:29.000Z</time>
      </trkpt>
      <trkpt lat="44.33334" lon="0.71689">
        <ele>206.4</ele>
        <time>2025-04-17T14:41:21.000Z</time>
      </trkpt>
      <trkpt lat="44.33339" lon="0.71681">
        <ele>207</ele>
        <time>2025-04-17T14:41:53.000Z</time>
      </trkpt>
      <trkpt lat="44.33343" lon="0.71666">
        <ele>207.7</ele>
        <time>2025-04-17T14:42:03.000Z</time>
      </trkpt>
      <trkpt lat="44.33337" lon="0.71658">
        <ele>207.9</ele>
        <time>2025-04-17T14:42:33.000Z</time>
      </trkpt>
      <trkpt lat="44.33328" lon="0.71659">
        <ele>208</ele>
        <time>2025-04-17T14:42:47.000Z</time>
      </trkpt>
      <trkpt lat="44.3332" lon="0.71658">
        <ele>208</ele>
        <time>2025-04-17T14:43:08.000Z</time>
      </trkpt>
      <trkpt lat="44.33311" lon="0.71659">
        <ele>208</ele>
        <time>2025-04-17T14:43:16.000Z</time>
      </trkpt>
      <trkpt lat="44.33303" lon="0.71665">
        <ele>208</ele>
        <time>2025-04-17T14:43:24.000Z</time>
      </trkpt>
      <trkpt lat="44.33293" lon="0.71672">
        <ele>207.8</ele>
        <time>2025-04-17T14:43:34.000Z</time>
      </trkpt>
      <trkpt lat="44.33283" lon="0.71676">
        <ele>207.7</ele>
        <time>2025-04-17T14:43:42.000Z</time>
      </trkpt>
      <trkpt lat="44.33274" lon="0.71681">
        <ele>207.6</ele>
        <time>2025-04-17T14:43:50.000Z</time>
      </trkpt>
      <trkpt lat="44.33266" lon="0.71685">
        <ele>207.6</ele>
        <time>2025-04-17T14:43:59.000Z</time>
      </trkpt>
      <trkpt lat="44.3326" lon="0.71696">
        <ele>207.6</ele>
        <time>2025-04-17T14:44:09.000Z</time>
      </trkpt>
      <trkpt lat="44.3326" lon="0.71708">
        <ele>207.2</ele>
        <time>2025-04-17T14:44:17.000Z</time>
      </trkpt>
      <trkpt lat="44.33261" lon="0.71721">
        <ele>206.6</ele>
        <time>2025-04-17T14:44:25.000Z</time>
      </trkpt>
      <trkpt lat="44.33262" lon="0.71735">
        <ele>206.4</ele>
        <time>2025-04-17T14:44:35.000Z</time>
      </trkpt>
      <trkpt lat="44.33252" lon="0.7174">
        <ele>206.9</ele>
        <time>2025-04-17T14:44:41.000Z</time>
      </trkpt>
      <trkpt lat="44.33244" lon="0.71746">
        <ele>207</ele>
        <time>2025-04-17T14:44:49.000Z</time>
      </trkpt>
      <trkpt lat="44.33234" lon="0.71743">
        <ele>207.1</ele>
        <time>2025-04-17T14:44:57.000Z</time>
      </trkpt>
    </trkseg>
  </trk>
</gpx>